<?xml version="1.0" encoding="UTF-8" standalone="no" ?>
<gpx xmlns="http://www.topografix.com/GPX/1/1" xmlns:xsi="http://www.w3.org/2001/XMLSchema-instance" xsi:schemaLocation="http://www.topografix.com/GPX/1/1 http://www.topografix.com/GPX/1/1/gpx.xsd" version="1.1" creator="VisuGPX - https://www.visugpx.com">
  <metadata>
    <name>Entre Joucas et Murs</name>
    <desc><![CDATA[Balade entre Joucas et Murs en passant au dessus des gorges de la Véroncle.]]></desc>
  </metadata>
  <trk>
    <name><![CDATA[2019-04-29 15-36-19]]></name>
    <trkseg>
      <trkpt lat="43.92525" lon="5.25142">
        <ele>238.54</ele>
        <time>2019-04-29T07:28:29Z</time>
      </trkpt>
      <trkpt lat="43.92525" lon="5.25142">
        <ele>239.02</ele>
        <time>2019-04-29T07:28:30Z</time>
      </trkpt>
      <trkpt lat="43.92526" lon="5.2514">
        <ele>239.99</ele>
        <time>2019-04-29T07:29:02Z</time>
      </trkpt>
      <trkpt lat="43.92527" lon="5.25138">
        <ele>239.51</ele>
        <time>2019-04-29T07:29:29Z</time>
      </trkpt>
      <trkpt lat="43.92526" lon="5.25139">
        <ele>239.02</ele>
        <time>2019-04-29T07:29:44Z</time>
      </trkpt>
      <trkpt lat="43.92525" lon="5.25141">
        <ele>239.02</ele>
        <time>2019-04-29T07:30:03Z</time>
      </trkpt>
      <trkpt lat="43.92526" lon="5.25144">
        <ele>239.02</ele>
        <time>2019-04-29T07:30:38Z</time>
      </trkpt>
      <trkpt lat="43.92528" lon="5.25143">
        <ele>239.02</ele>
        <time>2019-04-29T07:31:23Z</time>
      </trkpt>
      <trkpt lat="43.92527" lon="5.25143">
        <ele>239.02</ele>
        <time>2019-04-29T07:32:26Z</time>
      </trkpt>
      <trkpt lat="43.92527" lon="5.25146">
        <ele>239.02</ele>
        <time>2019-04-29T07:33:24Z</time>
      </trkpt>
      <trkpt lat="43.92527" lon="5.25146">
        <ele>239.02</ele>
        <time>2019-04-29T07:33:52Z</time>
      </trkpt>
      <trkpt lat="43.92528" lon="5.25145">
        <ele>239.02</ele>
        <time>2019-04-29T07:34:42Z</time>
      </trkpt>
      <trkpt lat="43.92527" lon="5.25145">
        <ele>239.02</ele>
        <time>2019-04-29T07:35:10Z</time>
      </trkpt>
      <trkpt lat="43.92527" lon="5.25143">
        <ele>239.02</ele>
        <time>2019-04-29T07:35:24Z</time>
      </trkpt>
      <trkpt lat="43.92526" lon="5.25143">
        <ele>239.02</ele>
        <time>2019-04-29T07:36:09Z</time>
      </trkpt>
      <trkpt lat="43.92528" lon="5.25136">
        <ele>239.02</ele>
        <time>2019-04-29T07:36:38Z</time>
      </trkpt>
      <trkpt lat="43.9253" lon="5.2512">
        <ele>242.39</ele>
        <time>2019-04-29T07:36:56Z</time>
      </trkpt>
      <trkpt lat="43.92536" lon="5.25124">
        <ele>244.31</ele>
        <time>2019-04-29T07:37:12Z</time>
      </trkpt>
      <trkpt lat="43.92538" lon="5.25138">
        <ele>245.27</ele>
        <time>2019-04-29T07:37:27Z</time>
      </trkpt>
      <trkpt lat="43.92543" lon="5.25153">
        <ele>246.72</ele>
        <time>2019-04-29T07:37:42Z</time>
      </trkpt>
      <trkpt lat="43.92545" lon="5.25157">
        <ele>246.72</ele>
        <time>2019-04-29T07:37:45Z</time>
      </trkpt>
      <trkpt lat="43.92552" lon="5.25183">
        <ele>248.16</ele>
        <time>2019-04-29T07:38:03Z</time>
      </trkpt>
      <trkpt lat="43.92558" lon="5.25195">
        <ele>249.6</ele>
        <time>2019-04-29T07:38:16Z</time>
      </trkpt>
      <trkpt lat="43.92576" lon="5.25197">
        <ele>252.48</ele>
        <time>2019-04-29T07:38:42Z</time>
      </trkpt>
      <trkpt lat="43.92583" lon="5.252">
        <ele>252.96</ele>
        <time>2019-04-29T07:38:48Z</time>
      </trkpt>
      <trkpt lat="43.92586" lon="5.25181">
        <ele>256.33</ele>
        <time>2019-04-29T07:39:03Z</time>
      </trkpt>
      <trkpt lat="43.92591" lon="5.25165">
        <ele>259.21</ele>
        <time>2019-04-29T07:39:22Z</time>
      </trkpt>
      <trkpt lat="43.92591" lon="5.25154">
        <ele>261.14</ele>
        <time>2019-04-29T07:39:31Z</time>
      </trkpt>
      <trkpt lat="43.92591" lon="5.25149">
        <ele>264.02</ele>
        <time>2019-04-29T07:39:48Z</time>
      </trkpt>
      <trkpt lat="43.9259" lon="5.25168">
        <ele>266.9</ele>
        <time>2019-04-29T07:40:06Z</time>
      </trkpt>
      <trkpt lat="43.92598" lon="5.25175">
        <ele>269.31</ele>
        <time>2019-04-29T07:40:22Z</time>
      </trkpt>
      <trkpt lat="43.92608" lon="5.2517">
        <ele>272.67</ele>
        <time>2019-04-29T07:40:43Z</time>
      </trkpt>
      <trkpt lat="43.92616" lon="5.25164">
        <ele>275.07</ele>
        <time>2019-04-29T07:40:56Z</time>
      </trkpt>
      <trkpt lat="43.92627" lon="5.25134">
        <ele>277</ele>
        <time>2019-04-29T07:41:19Z</time>
      </trkpt>
      <trkpt lat="43.92629" lon="5.25131">
        <ele>277.48</ele>
        <time>2019-04-29T07:41:23Z</time>
      </trkpt>
      <trkpt lat="43.92641" lon="5.25114">
        <ele>277.48</ele>
        <time>2019-04-29T07:41:41Z</time>
      </trkpt>
      <trkpt lat="43.92647" lon="5.25112">
        <ele>277.96</ele>
        <time>2019-04-29T07:41:58Z</time>
      </trkpt>
      <trkpt lat="43.92646" lon="5.25111">
        <ele>277.96</ele>
        <time>2019-04-29T07:42:17Z</time>
      </trkpt>
      <trkpt lat="43.92659" lon="5.25103">
        <ele>277.96</ele>
        <time>2019-04-29T07:42:32Z</time>
      </trkpt>
      <trkpt lat="43.92674" lon="5.2509">
        <ele>278.44</ele>
        <time>2019-04-29T07:42:48Z</time>
      </trkpt>
      <trkpt lat="43.92686" lon="5.25102">
        <ele>277.96</ele>
        <time>2019-04-29T07:43:03Z</time>
      </trkpt>
      <trkpt lat="43.92701" lon="5.25115">
        <ele>276.52</ele>
        <time>2019-04-29T07:43:21Z</time>
      </trkpt>
      <trkpt lat="43.92724" lon="5.2513">
        <ele>276.04</ele>
        <time>2019-04-29T07:43:41Z</time>
      </trkpt>
      <trkpt lat="43.92731" lon="5.25132">
        <ele>277</ele>
        <time>2019-04-29T07:43:51Z</time>
      </trkpt>
      <trkpt lat="43.92728" lon="5.25119">
        <ele>277.96</ele>
        <time>2019-04-29T07:44:04Z</time>
      </trkpt>
      <trkpt lat="43.92727" lon="5.25118">
        <ele>277.96</ele>
        <time>2019-04-29T07:44:05Z</time>
      </trkpt>
      <trkpt lat="43.92728" lon="5.25102">
        <ele>278.44</ele>
        <time>2019-04-29T07:44:16Z</time>
      </trkpt>
      <trkpt lat="43.92733" lon="5.25097">
        <ele>278.92</ele>
        <time>2019-04-29T07:44:22Z</time>
      </trkpt>
      <trkpt lat="43.92748" lon="5.25086">
        <ele>279.4</ele>
        <time>2019-04-29T07:44:40Z</time>
      </trkpt>
      <trkpt lat="43.92758" lon="5.25065">
        <ele>281.8</ele>
        <time>2019-04-29T07:45:00Z</time>
      </trkpt>
      <trkpt lat="43.92766" lon="5.25051">
        <ele>282.77</ele>
        <time>2019-04-29T07:45:14Z</time>
      </trkpt>
      <trkpt lat="43.92781" lon="5.25032">
        <ele>284.69</ele>
        <time>2019-04-29T07:45:35Z</time>
      </trkpt>
      <trkpt lat="43.92793" lon="5.25011">
        <ele>286.61</ele>
        <time>2019-04-29T07:45:55Z</time>
      </trkpt>
      <trkpt lat="43.92798" lon="5.24981">
        <ele>287.57</ele>
        <time>2019-04-29T07:46:17Z</time>
      </trkpt>
      <trkpt lat="43.92804" lon="5.24959">
        <ele>290.46</ele>
        <time>2019-04-29T07:46:36Z</time>
      </trkpt>
      <trkpt lat="43.92805" lon="5.24958">
        <ele>290.46</ele>
        <time>2019-04-29T07:46:37Z</time>
      </trkpt>
      <trkpt lat="43.92808" lon="5.24956">
        <ele>290.46</ele>
        <time>2019-04-29T07:46:40Z</time>
      </trkpt>
      <trkpt lat="43.92812" lon="5.2495">
        <ele>290.94</ele>
        <time>2019-04-29T07:46:46Z</time>
      </trkpt>
      <trkpt lat="43.92821" lon="5.24931">
        <ele>291.9</ele>
        <time>2019-04-29T07:47:03Z</time>
      </trkpt>
      <trkpt lat="43.92834" lon="5.24907">
        <ele>293.34</ele>
        <time>2019-04-29T07:47:25Z</time>
      </trkpt>
      <trkpt lat="43.92843" lon="5.24885">
        <ele>294.3</ele>
        <time>2019-04-29T07:47:44Z</time>
      </trkpt>
      <trkpt lat="43.92853" lon="5.24866">
        <ele>295.74</ele>
        <time>2019-04-29T07:48:01Z</time>
      </trkpt>
      <trkpt lat="43.92863" lon="5.24848">
        <ele>297.18</ele>
        <time>2019-04-29T07:48:19Z</time>
      </trkpt>
      <trkpt lat="43.92874" lon="5.24827">
        <ele>298.15</ele>
        <time>2019-04-29T07:48:39Z</time>
      </trkpt>
      <trkpt lat="43.92874" lon="5.24815">
        <ele>298.63</ele>
        <time>2019-04-29T07:48:55Z</time>
      </trkpt>
      <trkpt lat="43.92883" lon="5.24796">
        <ele>300.55</ele>
        <time>2019-04-29T07:49:12Z</time>
      </trkpt>
      <trkpt lat="43.92884" lon="5.24794">
        <ele>301.03</ele>
        <time>2019-04-29T07:49:14Z</time>
      </trkpt>
      <trkpt lat="43.92889" lon="5.24776">
        <ele>301.51</ele>
        <time>2019-04-29T07:49:29Z</time>
      </trkpt>
      <trkpt lat="43.9289" lon="5.24751">
        <ele>302.95</ele>
        <time>2019-04-29T07:49:48Z</time>
      </trkpt>
      <trkpt lat="43.92889" lon="5.24724">
        <ele>305.36</ele>
        <time>2019-04-29T07:50:10Z</time>
      </trkpt>
      <trkpt lat="43.9289" lon="5.24701">
        <ele>306.8</ele>
        <time>2019-04-29T07:50:29Z</time>
      </trkpt>
      <trkpt lat="43.92887" lon="5.24676">
        <ele>307.76</ele>
        <time>2019-04-29T07:50:48Z</time>
      </trkpt>
      <trkpt lat="43.92883" lon="5.24651">
        <ele>309.68</ele>
        <time>2019-04-29T07:51:09Z</time>
      </trkpt>
      <trkpt lat="43.92883" lon="5.24626">
        <ele>312.57</ele>
        <time>2019-04-29T07:51:29Z</time>
      </trkpt>
      <trkpt lat="43.92883" lon="5.24594">
        <ele>314.49</ele>
        <time>2019-04-29T07:51:54Z</time>
      </trkpt>
      <trkpt lat="43.92884" lon="5.24571">
        <ele>315.93</ele>
        <time>2019-04-29T07:52:12Z</time>
      </trkpt>
      <trkpt lat="43.92892" lon="5.24546">
        <ele>316.41</ele>
        <time>2019-04-29T07:52:32Z</time>
      </trkpt>
      <trkpt lat="43.92893" lon="5.24544">
        <ele>316.89</ele>
        <time>2019-04-29T07:52:34Z</time>
      </trkpt>
      <trkpt lat="43.92901" lon="5.2452">
        <ele>317.85</ele>
        <time>2019-04-29T07:52:53Z</time>
      </trkpt>
      <trkpt lat="43.92903" lon="5.24514">
        <ele>317.37</ele>
        <time>2019-04-29T07:53:10Z</time>
      </trkpt>
      <trkpt lat="43.92901" lon="5.24514">
        <ele>318.81</ele>
        <time>2019-04-29T07:53:45Z</time>
      </trkpt>
      <trkpt lat="43.92901" lon="5.24514">
        <ele>318.81</ele>
        <time>2019-04-29T07:54:12Z</time>
      </trkpt>
      <trkpt lat="43.92901" lon="5.24514">
        <ele>318.81</ele>
        <time>2019-04-29T07:54:47Z</time>
      </trkpt>
      <trkpt lat="43.929" lon="5.24513">
        <ele>318.81</ele>
        <time>2019-04-29T07:55:38Z</time>
      </trkpt>
      <trkpt lat="43.929" lon="5.24508">
        <ele>318.81</ele>
        <time>2019-04-29T07:56:02Z</time>
      </trkpt>
      <trkpt lat="43.92909" lon="5.245">
        <ele>319.78</ele>
        <time>2019-04-29T07:56:12Z</time>
      </trkpt>
      <trkpt lat="43.92915" lon="5.24492">
        <ele>319.78</ele>
        <time>2019-04-29T07:56:20Z</time>
      </trkpt>
      <trkpt lat="43.9292" lon="5.24469">
        <ele>321.22</ele>
        <time>2019-04-29T07:56:37Z</time>
      </trkpt>
      <trkpt lat="43.92925" lon="5.24445">
        <ele>322.18</ele>
        <time>2019-04-29T07:56:55Z</time>
      </trkpt>
      <trkpt lat="43.92927" lon="5.2444">
        <ele>322.18</ele>
        <time>2019-04-29T07:56:59Z</time>
      </trkpt>
      <trkpt lat="43.92934" lon="5.24409">
        <ele>323.62</ele>
        <time>2019-04-29T07:57:21Z</time>
      </trkpt>
      <trkpt lat="43.92945" lon="5.24389">
        <ele>325.06</ele>
        <time>2019-04-29T07:57:39Z</time>
      </trkpt>
      <trkpt lat="43.92953" lon="5.24375">
        <ele>326.02</ele>
        <time>2019-04-29T07:57:52Z</time>
      </trkpt>
      <trkpt lat="43.92957" lon="5.24373">
        <ele>326.02</ele>
        <time>2019-04-29T07:57:56Z</time>
      </trkpt>
      <trkpt lat="43.92973" lon="5.24363">
        <ele>326.99</ele>
        <time>2019-04-29T07:58:14Z</time>
      </trkpt>
      <trkpt lat="43.92985" lon="5.24348">
        <ele>327.95</ele>
        <time>2019-04-29T07:58:30Z</time>
      </trkpt>
      <trkpt lat="43.92986" lon="5.24342">
        <ele>328.43</ele>
        <time>2019-04-29T07:58:35Z</time>
      </trkpt>
      <trkpt lat="43.92996" lon="5.24323">
        <ele>328.43</ele>
        <time>2019-04-29T07:58:53Z</time>
      </trkpt>
      <trkpt lat="43.92999" lon="5.24321">
        <ele>328.91</ele>
        <time>2019-04-29T07:58:57Z</time>
      </trkpt>
      <trkpt lat="43.93005" lon="5.24301">
        <ele>329.87</ele>
        <time>2019-04-29T07:59:13Z</time>
      </trkpt>
      <trkpt lat="43.93014" lon="5.24284">
        <ele>331.79</ele>
        <time>2019-04-29T07:59:28Z</time>
      </trkpt>
      <trkpt lat="43.93024" lon="5.24268">
        <ele>332.27</ele>
        <time>2019-04-29T07:59:43Z</time>
      </trkpt>
      <trkpt lat="43.93035" lon="5.2425">
        <ele>333.71</ele>
        <time>2019-04-29T08:00:00Z</time>
      </trkpt>
      <trkpt lat="43.93037" lon="5.24223">
        <ele>335.16</ele>
        <time>2019-04-29T08:00:19Z</time>
      </trkpt>
      <trkpt lat="43.93039" lon="5.24221">
        <ele>335.16</ele>
        <time>2019-04-29T08:00:22Z</time>
      </trkpt>
      <trkpt lat="43.93046" lon="5.24206">
        <ele>335.16</ele>
        <time>2019-04-29T08:00:37Z</time>
      </trkpt>
      <trkpt lat="43.93052" lon="5.24194">
        <ele>336.12</ele>
        <time>2019-04-29T08:00:47Z</time>
      </trkpt>
      <trkpt lat="43.93059" lon="5.24171">
        <ele>336.6</ele>
        <time>2019-04-29T08:01:05Z</time>
      </trkpt>
      <trkpt lat="43.93068" lon="5.24154">
        <ele>337.56</ele>
        <time>2019-04-29T08:01:19Z</time>
      </trkpt>
      <trkpt lat="43.93076" lon="5.24134">
        <ele>338.52</ele>
        <time>2019-04-29T08:01:35Z</time>
      </trkpt>
      <trkpt lat="43.93082" lon="5.24109">
        <ele>339.48</ele>
        <time>2019-04-29T08:01:53Z</time>
      </trkpt>
      <trkpt lat="43.93082" lon="5.24107">
        <ele>339.96</ele>
        <time>2019-04-29T08:01:55Z</time>
      </trkpt>
      <trkpt lat="43.93093" lon="5.2409">
        <ele>340.92</ele>
        <time>2019-04-29T08:02:13Z</time>
      </trkpt>
      <trkpt lat="43.9309" lon="5.24085">
        <ele>340.44</ele>
        <time>2019-04-29T08:02:36Z</time>
      </trkpt>
      <trkpt lat="43.9309" lon="5.24077">
        <ele>340.92</ele>
        <time>2019-04-29T08:02:41Z</time>
      </trkpt>
      <trkpt lat="43.9309" lon="5.2407">
        <ele>340.92</ele>
        <time>2019-04-29T08:02:46Z</time>
      </trkpt>
      <trkpt lat="43.93097" lon="5.24043">
        <ele>342.37</ele>
        <time>2019-04-29T08:03:06Z</time>
      </trkpt>
      <trkpt lat="43.93103" lon="5.24018">
        <ele>343.81</ele>
        <time>2019-04-29T08:03:24Z</time>
      </trkpt>
      <trkpt lat="43.93106" lon="5.23993">
        <ele>344.77</ele>
        <time>2019-04-29T08:03:41Z</time>
      </trkpt>
      <trkpt lat="43.93109" lon="5.23973">
        <ele>344.29</ele>
        <time>2019-04-29T08:03:55Z</time>
      </trkpt>
      <trkpt lat="43.93108" lon="5.23951">
        <ele>345.73</ele>
        <time>2019-04-29T08:04:12Z</time>
      </trkpt>
      <trkpt lat="43.9311" lon="5.23924">
        <ele>347.17</ele>
        <time>2019-04-29T08:04:31Z</time>
      </trkpt>
      <trkpt lat="43.93118" lon="5.23897">
        <ele>348.62</ele>
        <time>2019-04-29T08:04:50Z</time>
      </trkpt>
      <trkpt lat="43.93129" lon="5.23877">
        <ele>349.1</ele>
        <time>2019-04-29T08:05:06Z</time>
      </trkpt>
      <trkpt lat="43.93138" lon="5.23852">
        <ele>349.58</ele>
        <time>2019-04-29T08:05:23Z</time>
      </trkpt>
      <trkpt lat="43.9314" lon="5.23835">
        <ele>351.02</ele>
        <time>2019-04-29T08:05:35Z</time>
      </trkpt>
      <trkpt lat="43.93145" lon="5.23813">
        <ele>352.46</ele>
        <time>2019-04-29T08:05:53Z</time>
      </trkpt>
      <trkpt lat="43.93146" lon="5.23794">
        <ele>353.9</ele>
        <time>2019-04-29T08:06:12Z</time>
      </trkpt>
      <trkpt lat="43.93147" lon="5.23795">
        <ele>353.9</ele>
        <time>2019-04-29T08:06:14Z</time>
      </trkpt>
      <trkpt lat="43.93154" lon="5.2378">
        <ele>355.83</ele>
        <time>2019-04-29T08:06:30Z</time>
      </trkpt>
      <trkpt lat="43.93153" lon="5.23777">
        <ele>355.34</ele>
        <time>2019-04-29T08:06:48Z</time>
      </trkpt>
      <trkpt lat="43.93154" lon="5.23776">
        <ele>354.86</ele>
        <time>2019-04-29T08:07:24Z</time>
      </trkpt>
      <trkpt lat="43.93154" lon="5.23778">
        <ele>354.38</ele>
        <time>2019-04-29T08:08:39Z</time>
      </trkpt>
      <trkpt lat="43.93154" lon="5.23779">
        <ele>354.38</ele>
        <time>2019-04-29T08:09:53Z</time>
      </trkpt>
      <trkpt lat="43.93154" lon="5.23778">
        <ele>354.38</ele>
        <time>2019-04-29T08:11:33Z</time>
      </trkpt>
      <trkpt lat="43.93154" lon="5.23779">
        <ele>354.38</ele>
        <time>2019-04-29T08:13:01Z</time>
      </trkpt>
      <trkpt lat="43.93154" lon="5.23778">
        <ele>354.38</ele>
        <time>2019-04-29T08:14:13Z</time>
      </trkpt>
      <trkpt lat="43.93155" lon="5.23779">
        <ele>354.38</ele>
        <time>2019-04-29T08:15:09Z</time>
      </trkpt>
      <trkpt lat="43.93154" lon="5.23778">
        <ele>354.38</ele>
        <time>2019-04-29T08:15:38Z</time>
      </trkpt>
      <trkpt lat="43.93154" lon="5.23778">
        <ele>354.38</ele>
        <time>2019-04-29T08:17:57Z</time>
      </trkpt>
      <trkpt lat="43.93154" lon="5.23778">
        <ele>354.38</ele>
        <time>2019-04-29T08:18:35Z</time>
      </trkpt>
      <trkpt lat="43.93154" lon="5.23779">
        <ele>354.38</ele>
        <time>2019-04-29T08:18:57Z</time>
      </trkpt>
      <trkpt lat="43.93153" lon="5.2378">
        <ele>354.38</ele>
        <time>2019-04-29T08:19:39Z</time>
      </trkpt>
      <trkpt lat="43.93152" lon="5.23782">
        <ele>354.38</ele>
        <time>2019-04-29T08:20:15Z</time>
      </trkpt>
      <trkpt lat="43.93153" lon="5.23782">
        <ele>354.38</ele>
        <time>2019-04-29T08:20:42Z</time>
      </trkpt>
      <trkpt lat="43.93156" lon="5.23788">
        <ele>354.38</ele>
        <time>2019-04-29T08:21:11Z</time>
      </trkpt>
      <trkpt lat="43.93165" lon="5.23773">
        <ele>355.83</ele>
        <time>2019-04-29T08:21:25Z</time>
      </trkpt>
      <trkpt lat="43.9317" lon="5.23752">
        <ele>358.23</ele>
        <time>2019-04-29T08:21:44Z</time>
      </trkpt>
      <trkpt lat="43.93172" lon="5.23732">
        <ele>359.67</ele>
        <time>2019-04-29T08:22:02Z</time>
      </trkpt>
      <trkpt lat="43.93179" lon="5.23715">
        <ele>362.07</ele>
        <time>2019-04-29T08:22:19Z</time>
      </trkpt>
      <trkpt lat="43.93187" lon="5.23694">
        <ele>364.48</ele>
        <time>2019-04-29T08:22:40Z</time>
      </trkpt>
      <trkpt lat="43.93191" lon="5.23678">
        <ele>367.36</ele>
        <time>2019-04-29T08:22:56Z</time>
      </trkpt>
      <trkpt lat="43.93201" lon="5.23663">
        <ele>369.76</ele>
        <time>2019-04-29T08:23:16Z</time>
      </trkpt>
      <trkpt lat="43.9321" lon="5.23648">
        <ele>373.13</ele>
        <time>2019-04-29T08:23:31Z</time>
      </trkpt>
      <trkpt lat="43.93211" lon="5.23644">
        <ele>373.13</ele>
        <time>2019-04-29T08:23:35Z</time>
      </trkpt>
      <trkpt lat="43.93212" lon="5.23634">
        <ele>374.09</ele>
        <time>2019-04-29T08:23:44Z</time>
      </trkpt>
      <trkpt lat="43.93217" lon="5.23617">
        <ele>376.97</ele>
        <time>2019-04-29T08:24:01Z</time>
      </trkpt>
      <trkpt lat="43.93217" lon="5.23616">
        <ele>377.45</ele>
        <time>2019-04-29T08:24:02Z</time>
      </trkpt>
      <trkpt lat="43.93232" lon="5.23609">
        <ele>378.42</ele>
        <time>2019-04-29T08:24:19Z</time>
      </trkpt>
      <trkpt lat="43.9325" lon="5.23599">
        <ele>380.82</ele>
        <time>2019-04-29T08:24:39Z</time>
      </trkpt>
      <trkpt lat="43.93262" lon="5.23599">
        <ele>383.22</ele>
        <time>2019-04-29T08:24:53Z</time>
      </trkpt>
      <trkpt lat="43.93278" lon="5.23596">
        <ele>385.15</ele>
        <time>2019-04-29T08:25:10Z</time>
      </trkpt>
      <trkpt lat="43.93294" lon="5.23586">
        <ele>387.55</ele>
        <time>2019-04-29T08:25:30Z</time>
      </trkpt>
      <trkpt lat="43.93308" lon="5.23576">
        <ele>388.99</ele>
        <time>2019-04-29T08:25:47Z</time>
      </trkpt>
      <trkpt lat="43.9331" lon="5.23574">
        <ele>389.95</ele>
        <time>2019-04-29T08:26:06Z</time>
      </trkpt>
      <trkpt lat="43.93308" lon="5.23572">
        <ele>389.47</ele>
        <time>2019-04-29T08:26:30Z</time>
      </trkpt>
      <trkpt lat="43.93311" lon="5.23571">
        <ele>388.99</ele>
        <time>2019-04-29T08:27:01Z</time>
      </trkpt>
      <trkpt lat="43.93315" lon="5.23571">
        <ele>388.99</ele>
        <time>2019-04-29T08:27:04Z</time>
      </trkpt>
      <trkpt lat="43.93317" lon="5.23571">
        <ele>388.99</ele>
        <time>2019-04-29T08:27:06Z</time>
      </trkpt>
      <trkpt lat="43.93322" lon="5.23572">
        <ele>390.43</ele>
        <time>2019-04-29T08:27:11Z</time>
      </trkpt>
      <trkpt lat="43.93325" lon="5.23574">
        <ele>391.39</ele>
        <time>2019-04-29T08:27:14Z</time>
      </trkpt>
      <trkpt lat="43.93341" lon="5.23573">
        <ele>393.8</ele>
        <time>2019-04-29T08:27:31Z</time>
      </trkpt>
      <trkpt lat="43.9335" lon="5.23568">
        <ele>394.28</ele>
        <time>2019-04-29T08:27:43Z</time>
      </trkpt>
      <trkpt lat="43.93362" lon="5.23556">
        <ele>397.16</ele>
        <time>2019-04-29T08:28:00Z</time>
      </trkpt>
      <trkpt lat="43.93369" lon="5.2354">
        <ele>399.57</ele>
        <time>2019-04-29T08:28:16Z</time>
      </trkpt>
      <trkpt lat="43.93369" lon="5.23533">
        <ele>400.05</ele>
        <time>2019-04-29T08:28:21Z</time>
      </trkpt>
      <trkpt lat="43.93373" lon="5.23512">
        <ele>401.97</ele>
        <time>2019-04-29T08:28:39Z</time>
      </trkpt>
      <trkpt lat="43.93377" lon="5.23489">
        <ele>404.37</ele>
        <time>2019-04-29T08:28:57Z</time>
      </trkpt>
      <trkpt lat="43.93378" lon="5.23463">
        <ele>405.33</ele>
        <time>2019-04-29T08:29:18Z</time>
      </trkpt>
      <trkpt lat="43.93379" lon="5.23457">
        <ele>406.77</ele>
        <time>2019-04-29T08:29:22Z</time>
      </trkpt>
      <trkpt lat="43.9338" lon="5.23455">
        <ele>408.22</ele>
        <time>2019-04-29T08:29:24Z</time>
      </trkpt>
      <trkpt lat="43.93385" lon="5.23438">
        <ele>410.62</ele>
        <time>2019-04-29T08:29:38Z</time>
      </trkpt>
      <trkpt lat="43.93388" lon="5.23422">
        <ele>413.02</ele>
        <time>2019-04-29T08:29:51Z</time>
      </trkpt>
      <trkpt lat="43.93401" lon="5.23411">
        <ele>413.98</ele>
        <time>2019-04-29T08:30:09Z</time>
      </trkpt>
      <trkpt lat="43.93412" lon="5.23401">
        <ele>417.35</ele>
        <time>2019-04-29T08:30:24Z</time>
      </trkpt>
      <trkpt lat="43.93422" lon="5.2338">
        <ele>419.27</ele>
        <time>2019-04-29T08:30:43Z</time>
      </trkpt>
      <trkpt lat="43.93427" lon="5.23364">
        <ele>421.68</ele>
        <time>2019-04-29T08:30:58Z</time>
      </trkpt>
      <trkpt lat="43.93437" lon="5.2335">
        <ele>424.56</ele>
        <time>2019-04-29T08:31:16Z</time>
      </trkpt>
      <trkpt lat="43.93454" lon="5.23338">
        <ele>426.96</ele>
        <time>2019-04-29T08:31:37Z</time>
      </trkpt>
      <trkpt lat="43.93465" lon="5.23322">
        <ele>428.4</ele>
        <time>2019-04-29T08:31:57Z</time>
      </trkpt>
      <trkpt lat="43.93476" lon="5.2331">
        <ele>430.33</ele>
        <time>2019-04-29T08:32:14Z</time>
      </trkpt>
      <trkpt lat="43.93489" lon="5.23299">
        <ele>432.73</ele>
        <time>2019-04-29T08:32:34Z</time>
      </trkpt>
      <trkpt lat="43.935" lon="5.2329">
        <ele>434.17</ele>
        <time>2019-04-29T08:32:46Z</time>
      </trkpt>
      <trkpt lat="43.93515" lon="5.23282">
        <ele>435.61</ele>
        <time>2019-04-29T08:33:02Z</time>
      </trkpt>
      <trkpt lat="43.93521" lon="5.23263">
        <ele>438.02</ele>
        <time>2019-04-29T08:33:19Z</time>
      </trkpt>
      <trkpt lat="43.9353" lon="5.23248">
        <ele>439.46</ele>
        <time>2019-04-29T08:33:34Z</time>
      </trkpt>
      <trkpt lat="43.93541" lon="5.23228">
        <ele>441.86</ele>
        <time>2019-04-29T08:33:52Z</time>
      </trkpt>
      <trkpt lat="43.93547" lon="5.232">
        <ele>443.31</ele>
        <time>2019-04-29T08:34:13Z</time>
      </trkpt>
      <trkpt lat="43.93552" lon="5.23192">
        <ele>444.75</ele>
        <time>2019-04-29T08:34:20Z</time>
      </trkpt>
      <trkpt lat="43.93567" lon="5.23183">
        <ele>447.15</ele>
        <time>2019-04-29T08:34:38Z</time>
      </trkpt>
      <trkpt lat="43.93574" lon="5.23175">
        <ele>448.59</ele>
        <time>2019-04-29T08:34:55Z</time>
      </trkpt>
      <trkpt lat="43.93575" lon="5.23176">
        <ele>447.63</ele>
        <time>2019-04-29T08:35:23Z</time>
      </trkpt>
      <trkpt lat="43.93573" lon="5.23176">
        <ele>449.07</ele>
        <time>2019-04-29T08:35:49Z</time>
      </trkpt>
      <trkpt lat="43.93577" lon="5.23166">
        <ele>449.07</ele>
        <time>2019-04-29T08:36:13Z</time>
      </trkpt>
      <trkpt lat="43.93579" lon="5.23147">
        <ele>452.44</ele>
        <time>2019-04-29T08:36:28Z</time>
      </trkpt>
      <trkpt lat="43.93581" lon="5.23139">
        <ele>452.92</ele>
        <time>2019-04-29T08:36:35Z</time>
      </trkpt>
      <trkpt lat="43.93585" lon="5.23115">
        <ele>453.88</ele>
        <time>2019-04-29T08:36:54Z</time>
      </trkpt>
      <trkpt lat="43.93592" lon="5.231">
        <ele>456.76</ele>
        <time>2019-04-29T08:37:08Z</time>
      </trkpt>
      <trkpt lat="43.93602" lon="5.23083">
        <ele>459.17</ele>
        <time>2019-04-29T08:37:26Z</time>
      </trkpt>
      <trkpt lat="43.93618" lon="5.23065">
        <ele>462.05</ele>
        <time>2019-04-29T08:37:50Z</time>
      </trkpt>
      <trkpt lat="43.93622" lon="5.23064">
        <ele>463.97</ele>
        <time>2019-04-29T08:38:13Z</time>
      </trkpt>
      <trkpt lat="43.93622" lon="5.23064">
        <ele>463.49</ele>
        <time>2019-04-29T08:38:39Z</time>
      </trkpt>
      <trkpt lat="43.93622" lon="5.23064">
        <ele>463.97</ele>
        <time>2019-04-29T08:39:05Z</time>
      </trkpt>
      <trkpt lat="43.93626" lon="5.23066">
        <ele>463.97</ele>
        <time>2019-04-29T08:39:08Z</time>
      </trkpt>
      <trkpt lat="43.93643" lon="5.23075">
        <ele>463.97</ele>
        <time>2019-04-29T08:39:25Z</time>
      </trkpt>
      <trkpt lat="43.93657" lon="5.23085">
        <ele>465.42</ele>
        <time>2019-04-29T08:39:41Z</time>
      </trkpt>
      <trkpt lat="43.93676" lon="5.23095">
        <ele>465.9</ele>
        <time>2019-04-29T08:40:00Z</time>
      </trkpt>
      <trkpt lat="43.93681" lon="5.23096">
        <ele>466.38</ele>
        <time>2019-04-29T08:40:04Z</time>
      </trkpt>
      <trkpt lat="43.93691" lon="5.23104">
        <ele>465.9</ele>
        <time>2019-04-29T08:40:13Z</time>
      </trkpt>
      <trkpt lat="43.937" lon="5.23122">
        <ele>465.9</ele>
        <time>2019-04-29T08:40:29Z</time>
      </trkpt>
      <trkpt lat="43.93707" lon="5.23144">
        <ele>467.82</ele>
        <time>2019-04-29T08:40:46Z</time>
      </trkpt>
      <trkpt lat="43.93716" lon="5.23163">
        <ele>468.3</ele>
        <time>2019-04-29T08:41:02Z</time>
      </trkpt>
      <trkpt lat="43.93722" lon="5.23178">
        <ele>470.22</ele>
        <time>2019-04-29T08:41:15Z</time>
      </trkpt>
      <trkpt lat="43.93735" lon="5.23192">
        <ele>472.14</ele>
        <time>2019-04-29T08:41:31Z</time>
      </trkpt>
      <trkpt lat="43.9375" lon="5.23199">
        <ele>474.55</ele>
        <time>2019-04-29T08:41:49Z</time>
      </trkpt>
      <trkpt lat="43.93761" lon="5.23198">
        <ele>475.99</ele>
        <time>2019-04-29T08:42:01Z</time>
      </trkpt>
      <trkpt lat="43.9378" lon="5.23194">
        <ele>478.87</ele>
        <time>2019-04-29T08:42:23Z</time>
      </trkpt>
      <trkpt lat="43.93802" lon="5.23195">
        <ele>480.8</ele>
        <time>2019-04-29T08:42:46Z</time>
      </trkpt>
      <trkpt lat="43.93813" lon="5.23193">
        <ele>482.72</ele>
        <time>2019-04-29T08:43:05Z</time>
      </trkpt>
      <trkpt lat="43.93811" lon="5.2319">
        <ele>483.2</ele>
        <time>2019-04-29T08:43:34Z</time>
      </trkpt>
      <trkpt lat="43.93821" lon="5.23198">
        <ele>483.2</ele>
        <time>2019-04-29T08:43:58Z</time>
      </trkpt>
      <trkpt lat="43.93841" lon="5.2321">
        <ele>483.2</ele>
        <time>2019-04-29T08:44:17Z</time>
      </trkpt>
      <trkpt lat="43.93842" lon="5.23209">
        <ele>483.2</ele>
        <time>2019-04-29T08:44:40Z</time>
      </trkpt>
      <trkpt lat="43.93844" lon="5.2321">
        <ele>483.2</ele>
        <time>2019-04-29T08:44:52Z</time>
      </trkpt>
      <trkpt lat="43.93854" lon="5.23231">
        <ele>480.8</ele>
        <time>2019-04-29T08:45:08Z</time>
      </trkpt>
      <trkpt lat="43.93861" lon="5.23251">
        <ele>479.84</ele>
        <time>2019-04-29T08:45:24Z</time>
      </trkpt>
      <trkpt lat="43.93866" lon="5.23256">
        <ele>479.35</ele>
        <time>2019-04-29T08:45:30Z</time>
      </trkpt>
      <trkpt lat="43.93869" lon="5.23259">
        <ele>479.84</ele>
        <time>2019-04-29T08:45:33Z</time>
      </trkpt>
      <trkpt lat="43.93888" lon="5.23275">
        <ele>479.84</ele>
        <time>2019-04-29T08:45:50Z</time>
      </trkpt>
      <trkpt lat="43.93902" lon="5.23283">
        <ele>479.84</ele>
        <time>2019-04-29T08:46:05Z</time>
      </trkpt>
      <trkpt lat="43.93918" lon="5.23294">
        <ele>479.84</ele>
        <time>2019-04-29T08:46:22Z</time>
      </trkpt>
      <trkpt lat="43.93933" lon="5.23307">
        <ele>480.8</ele>
        <time>2019-04-29T08:46:39Z</time>
      </trkpt>
      <trkpt lat="43.93953" lon="5.23322">
        <ele>481.76</ele>
        <time>2019-04-29T08:46:58Z</time>
      </trkpt>
      <trkpt lat="43.93971" lon="5.23337">
        <ele>482.24</ele>
        <time>2019-04-29T08:47:17Z</time>
      </trkpt>
      <trkpt lat="43.93985" lon="5.23351">
        <ele>482.72</ele>
        <time>2019-04-29T08:47:33Z</time>
      </trkpt>
      <trkpt lat="43.93997" lon="5.2337">
        <ele>484.16</ele>
        <time>2019-04-29T08:47:50Z</time>
      </trkpt>
      <trkpt lat="43.93999" lon="5.23374">
        <ele>485.6</ele>
        <time>2019-04-29T08:47:53Z</time>
      </trkpt>
      <trkpt lat="43.94008" lon="5.23394">
        <ele>486.56</ele>
        <time>2019-04-29T08:48:11Z</time>
      </trkpt>
      <trkpt lat="43.94021" lon="5.23411">
        <ele>489.45</ele>
        <time>2019-04-29T08:48:30Z</time>
      </trkpt>
      <trkpt lat="43.94036" lon="5.23412">
        <ele>491.85</ele>
        <time>2019-04-29T08:48:49Z</time>
      </trkpt>
      <trkpt lat="43.94047" lon="5.23418">
        <ele>494.74</ele>
        <time>2019-04-29T08:49:07Z</time>
      </trkpt>
      <trkpt lat="43.94061" lon="5.23425">
        <ele>496.66</ele>
        <time>2019-04-29T08:49:24Z</time>
      </trkpt>
      <trkpt lat="43.94073" lon="5.2343">
        <ele>498.1</ele>
        <time>2019-04-29T08:49:41Z</time>
      </trkpt>
      <trkpt lat="43.94064" lon="5.23422">
        <ele>498.1</ele>
        <time>2019-04-29T08:49:51Z</time>
      </trkpt>
      <trkpt lat="43.94054" lon="5.23416">
        <ele>495.22</ele>
        <time>2019-04-29T08:50:09Z</time>
      </trkpt>
      <trkpt lat="43.94053" lon="5.23413">
        <ele>496.18</ele>
        <time>2019-04-29T08:50:48Z</time>
      </trkpt>
      <trkpt lat="43.94052" lon="5.23414">
        <ele>496.18</ele>
        <time>2019-04-29T08:51:22Z</time>
      </trkpt>
      <trkpt lat="43.94053" lon="5.23417">
        <ele>496.18</ele>
        <time>2019-04-29T08:51:46Z</time>
      </trkpt>
      <trkpt lat="43.94051" lon="5.23422">
        <ele>496.18</ele>
        <time>2019-04-29T08:52:13Z</time>
      </trkpt>
      <trkpt lat="43.94052" lon="5.23421">
        <ele>497.62</ele>
        <time>2019-04-29T08:52:47Z</time>
      </trkpt>
      <trkpt lat="43.94054" lon="5.23421">
        <ele>496.18</ele>
        <time>2019-04-29T08:53:23Z</time>
      </trkpt>
      <trkpt lat="43.94058" lon="5.23423">
        <ele>496.18</ele>
        <time>2019-04-29T08:53:49Z</time>
      </trkpt>
      <trkpt lat="43.94063" lon="5.23427">
        <ele>496.18</ele>
        <time>2019-04-29T08:53:55Z</time>
      </trkpt>
      <trkpt lat="43.9408" lon="5.23445">
        <ele>498.58</ele>
        <time>2019-04-29T08:54:12Z</time>
      </trkpt>
      <trkpt lat="43.94087" lon="5.23452">
        <ele>498.1</ele>
        <time>2019-04-29T08:54:21Z</time>
      </trkpt>
      <trkpt lat="43.94092" lon="5.23455">
        <ele>498.1</ele>
        <time>2019-04-29T08:54:26Z</time>
      </trkpt>
      <trkpt lat="43.9411" lon="5.23469">
        <ele>496.18</ele>
        <time>2019-04-29T08:54:43Z</time>
      </trkpt>
      <trkpt lat="43.94127" lon="5.23481">
        <ele>495.7</ele>
        <time>2019-04-29T08:54:59Z</time>
      </trkpt>
      <trkpt lat="43.94144" lon="5.2349">
        <ele>495.7</ele>
        <time>2019-04-29T08:55:15Z</time>
      </trkpt>
      <trkpt lat="43.94163" lon="5.23495">
        <ele>497.14</ele>
        <time>2019-04-29T08:55:31Z</time>
      </trkpt>
      <trkpt lat="43.94182" lon="5.23496">
        <ele>497.14</ele>
        <time>2019-04-29T08:55:47Z</time>
      </trkpt>
      <trkpt lat="43.94196" lon="5.23495">
        <ele>497.62</ele>
        <time>2019-04-29T08:55:58Z</time>
      </trkpt>
      <trkpt lat="43.94214" lon="5.23489">
        <ele>497.62</ele>
        <time>2019-04-29T08:56:13Z</time>
      </trkpt>
      <trkpt lat="43.94234" lon="5.23481">
        <ele>499.06</ele>
        <time>2019-04-29T08:56:30Z</time>
      </trkpt>
      <trkpt lat="43.94252" lon="5.23477">
        <ele>499.54</ele>
        <time>2019-04-29T08:56:46Z</time>
      </trkpt>
      <trkpt lat="43.94273" lon="5.23476">
        <ele>500.02</ele>
        <time>2019-04-29T08:57:01Z</time>
      </trkpt>
      <trkpt lat="43.94292" lon="5.23474">
        <ele>501.46</ele>
        <time>2019-04-29T08:57:17Z</time>
      </trkpt>
      <trkpt lat="43.94308" lon="5.23476">
        <ele>502.43</ele>
        <time>2019-04-29T08:57:33Z</time>
      </trkpt>
      <trkpt lat="43.94326" lon="5.23476">
        <ele>503.39</ele>
        <time>2019-04-29T08:57:50Z</time>
      </trkpt>
      <trkpt lat="43.94341" lon="5.23474">
        <ele>504.83</ele>
        <time>2019-04-29T08:58:04Z</time>
      </trkpt>
      <trkpt lat="43.94366" lon="5.2348">
        <ele>504.83</ele>
        <time>2019-04-29T08:58:22Z</time>
      </trkpt>
      <trkpt lat="43.94386" lon="5.23482">
        <ele>506.27</ele>
        <time>2019-04-29T08:58:40Z</time>
      </trkpt>
      <trkpt lat="43.94391" lon="5.2348">
        <ele>506.75</ele>
        <time>2019-04-29T08:58:56Z</time>
      </trkpt>
      <trkpt lat="43.94402" lon="5.2348">
        <ele>508.19</ele>
        <time>2019-04-29T08:59:14Z</time>
      </trkpt>
      <trkpt lat="43.9442" lon="5.23486">
        <ele>509.16</ele>
        <time>2019-04-29T08:59:31Z</time>
      </trkpt>
      <trkpt lat="43.94441" lon="5.23493">
        <ele>511.08</ele>
        <time>2019-04-29T08:59:49Z</time>
      </trkpt>
      <trkpt lat="43.94458" lon="5.235">
        <ele>512.52</ele>
        <time>2019-04-29T09:00:06Z</time>
      </trkpt>
      <trkpt lat="43.94469" lon="5.23505">
        <ele>513.96</ele>
        <time>2019-04-29T09:00:21Z</time>
      </trkpt>
      <trkpt lat="43.94483" lon="5.23518">
        <ele>517.33</ele>
        <time>2019-04-29T09:00:38Z</time>
      </trkpt>
      <trkpt lat="43.94501" lon="5.23535">
        <ele>518.77</ele>
        <time>2019-04-29T09:00:59Z</time>
      </trkpt>
      <trkpt lat="43.94503" lon="5.23546">
        <ele>520.21</ele>
        <time>2019-04-29T09:01:09Z</time>
      </trkpt>
      <trkpt lat="43.94498" lon="5.23573">
        <ele>521.17</ele>
        <time>2019-04-29T09:01:27Z</time>
      </trkpt>
      <trkpt lat="43.94489" lon="5.23599">
        <ele>519.25</ele>
        <time>2019-04-29T09:01:44Z</time>
      </trkpt>
      <trkpt lat="43.94474" lon="5.23628">
        <ele>518.77</ele>
        <time>2019-04-29T09:02:06Z</time>
      </trkpt>
      <trkpt lat="43.94467" lon="5.23639">
        <ele>517.81</ele>
        <time>2019-04-29T09:02:15Z</time>
      </trkpt>
      <trkpt lat="43.94454" lon="5.23656">
        <ele>516.37</ele>
        <time>2019-04-29T09:02:31Z</time>
      </trkpt>
      <trkpt lat="43.94454" lon="5.23658">
        <ele>516.37</ele>
        <time>2019-04-29T09:02:32Z</time>
      </trkpt>
      <trkpt lat="43.94448" lon="5.23667">
        <ele>516.37</ele>
        <time>2019-04-29T09:02:39Z</time>
      </trkpt>
      <trkpt lat="43.94443" lon="5.23675">
        <ele>516.85</ele>
        <time>2019-04-29T09:02:45Z</time>
      </trkpt>
      <trkpt lat="43.94428" lon="5.23702">
        <ele>514.44</ele>
        <time>2019-04-29T09:03:06Z</time>
      </trkpt>
      <trkpt lat="43.94415" lon="5.23721">
        <ele>514.44</ele>
        <time>2019-04-29T09:03:21Z</time>
      </trkpt>
      <trkpt lat="43.94401" lon="5.23753">
        <ele>513</ele>
        <time>2019-04-29T09:03:42Z</time>
      </trkpt>
      <trkpt lat="43.94389" lon="5.23782">
        <ele>511.08</ele>
        <time>2019-04-29T09:04:03Z</time>
      </trkpt>
      <trkpt lat="43.9438" lon="5.23804">
        <ele>510.12</ele>
        <time>2019-04-29T09:04:20Z</time>
      </trkpt>
      <trkpt lat="43.94363" lon="5.23828">
        <ele>508.19</ele>
        <time>2019-04-29T09:04:43Z</time>
      </trkpt>
      <trkpt lat="43.94349" lon="5.2385">
        <ele>507.71</ele>
        <time>2019-04-29T09:05:02Z</time>
      </trkpt>
      <trkpt lat="43.94335" lon="5.23871">
        <ele>507.23</ele>
        <time>2019-04-29T09:05:20Z</time>
      </trkpt>
      <trkpt lat="43.94324" lon="5.23902">
        <ele>504.83</ele>
        <time>2019-04-29T09:05:40Z</time>
      </trkpt>
      <trkpt lat="43.94319" lon="5.23929">
        <ele>503.87</ele>
        <time>2019-04-29T09:05:58Z</time>
      </trkpt>
      <trkpt lat="43.94318" lon="5.23956">
        <ele>502.91</ele>
        <time>2019-04-29T09:06:16Z</time>
      </trkpt>
      <trkpt lat="43.94318" lon="5.2396">
        <ele>502.43</ele>
        <time>2019-04-29T09:06:18Z</time>
      </trkpt>
      <trkpt lat="43.94327" lon="5.23987">
        <ele>500.5</ele>
        <time>2019-04-29T09:06:37Z</time>
      </trkpt>
      <trkpt lat="43.9434" lon="5.24012">
        <ele>500.02</ele>
        <time>2019-04-29T09:06:56Z</time>
      </trkpt>
      <trkpt lat="43.94356" lon="5.24025">
        <ele>498.58</ele>
        <time>2019-04-29T09:07:12Z</time>
      </trkpt>
      <trkpt lat="43.94373" lon="5.24042">
        <ele>497.62</ele>
        <time>2019-04-29T09:07:29Z</time>
      </trkpt>
      <trkpt lat="43.9439" lon="5.24049">
        <ele>496.66</ele>
        <time>2019-04-29T09:07:44Z</time>
      </trkpt>
      <trkpt lat="43.94413" lon="5.24054">
        <ele>494.74</ele>
        <time>2019-04-29T09:08:04Z</time>
      </trkpt>
      <trkpt lat="43.9442" lon="5.24062">
        <ele>494.74</ele>
        <time>2019-04-29T09:08:11Z</time>
      </trkpt>
      <trkpt lat="43.94428" lon="5.24066">
        <ele>494.26</ele>
        <time>2019-04-29T09:08:18Z</time>
      </trkpt>
      <trkpt lat="43.94453" lon="5.24063">
        <ele>492.33</ele>
        <time>2019-04-29T09:08:37Z</time>
      </trkpt>
      <trkpt lat="43.94472" lon="5.24067">
        <ele>492.33</ele>
        <time>2019-04-29T09:08:54Z</time>
      </trkpt>
      <trkpt lat="43.94482" lon="5.24072">
        <ele>491.85</ele>
        <time>2019-04-29T09:09:05Z</time>
      </trkpt>
      <trkpt lat="43.94503" lon="5.2408">
        <ele>490.89</ele>
        <time>2019-04-29T09:09:24Z</time>
      </trkpt>
      <trkpt lat="43.94506" lon="5.24081">
        <ele>490.89</ele>
        <time>2019-04-29T09:09:40Z</time>
      </trkpt>
      <trkpt lat="43.94504" lon="5.24078">
        <ele>490.89</ele>
        <time>2019-04-29T09:10:04Z</time>
      </trkpt>
      <trkpt lat="43.94503" lon="5.24074">
        <ele>490.89</ele>
        <time>2019-04-29T09:10:32Z</time>
      </trkpt>
      <trkpt lat="43.94504" lon="5.24077">
        <ele>489.93</ele>
        <time>2019-04-29T09:10:42Z</time>
      </trkpt>
      <trkpt lat="43.94517" lon="5.24095">
        <ele>489.93</ele>
        <time>2019-04-29T09:10:57Z</time>
      </trkpt>
      <trkpt lat="43.94521" lon="5.24104">
        <ele>488.49</ele>
        <time>2019-04-29T09:11:04Z</time>
      </trkpt>
      <trkpt lat="43.94524" lon="5.24117">
        <ele>488.01</ele>
        <time>2019-04-29T09:11:14Z</time>
      </trkpt>
      <trkpt lat="43.94537" lon="5.24137">
        <ele>487.05</ele>
        <time>2019-04-29T09:11:29Z</time>
      </trkpt>
      <trkpt lat="43.94552" lon="5.24155">
        <ele>485.6</ele>
        <time>2019-04-29T09:11:44Z</time>
      </trkpt>
      <trkpt lat="43.9456" lon="5.24162">
        <ele>485.6</ele>
        <time>2019-04-29T09:11:51Z</time>
      </trkpt>
      <trkpt lat="43.94578" lon="5.24175">
        <ele>483.2</ele>
        <time>2019-04-29T09:12:08Z</time>
      </trkpt>
      <trkpt lat="43.94589" lon="5.24197">
        <ele>482.24</ele>
        <time>2019-04-29T09:12:26Z</time>
      </trkpt>
      <trkpt lat="43.9459" lon="5.24202">
        <ele>482.24</ele>
        <time>2019-04-29T09:12:30Z</time>
      </trkpt>
      <trkpt lat="43.94589" lon="5.24209">
        <ele>481.76</ele>
        <time>2019-04-29T09:12:34Z</time>
      </trkpt>
      <trkpt lat="43.9459" lon="5.24215">
        <ele>481.76</ele>
        <time>2019-04-29T09:12:38Z</time>
      </trkpt>
      <trkpt lat="43.94585" lon="5.24249">
        <ele>478.39</ele>
        <time>2019-04-29T09:12:54Z</time>
      </trkpt>
      <trkpt lat="43.94575" lon="5.24255">
        <ele>478.87</ele>
        <time>2019-04-29T09:13:09Z</time>
      </trkpt>
      <trkpt lat="43.94568" lon="5.24258">
        <ele>475.51</ele>
        <time>2019-04-29T09:13:23Z</time>
      </trkpt>
      <trkpt lat="43.94552" lon="5.24264">
        <ele>472.63</ele>
        <time>2019-04-29T09:13:40Z</time>
      </trkpt>
      <trkpt lat="43.9454" lon="5.2427">
        <ele>469.74</ele>
        <time>2019-04-29T09:13:57Z</time>
      </trkpt>
      <trkpt lat="43.94533" lon="5.24271">
        <ele>467.82</ele>
        <time>2019-04-29T09:14:19Z</time>
      </trkpt>
      <trkpt lat="43.94534" lon="5.2428">
        <ele>466.38</ele>
        <time>2019-04-29T09:14:36Z</time>
      </trkpt>
      <trkpt lat="43.94525" lon="5.2431">
        <ele>464.45</ele>
        <time>2019-04-29T09:14:56Z</time>
      </trkpt>
      <trkpt lat="43.94515" lon="5.24332">
        <ele>464.45</ele>
        <time>2019-04-29T09:15:14Z</time>
      </trkpt>
      <trkpt lat="43.94506" lon="5.24336">
        <ele>465.42</ele>
        <time>2019-04-29T09:15:27Z</time>
      </trkpt>
      <trkpt lat="43.94492" lon="5.24317">
        <ele>463.01</ele>
        <time>2019-04-29T09:15:45Z</time>
      </trkpt>
      <trkpt lat="43.94491" lon="5.24317">
        <ele>463.01</ele>
        <time>2019-04-29T09:15:46Z</time>
      </trkpt>
      <trkpt lat="43.94479" lon="5.24322">
        <ele>461.57</ele>
        <time>2019-04-29T09:15:59Z</time>
      </trkpt>
      <trkpt lat="43.94475" lon="5.24331">
        <ele>460.61</ele>
        <time>2019-04-29T09:16:19Z</time>
      </trkpt>
      <trkpt lat="43.94479" lon="5.24345">
        <ele>459.17</ele>
        <time>2019-04-29T09:16:40Z</time>
      </trkpt>
      <trkpt lat="43.94489" lon="5.24354">
        <ele>460.13</ele>
        <time>2019-04-29T09:17:01Z</time>
      </trkpt>
      <trkpt lat="43.94498" lon="5.24358">
        <ele>461.57</ele>
        <time>2019-04-29T09:17:16Z</time>
      </trkpt>
      <trkpt lat="43.94513" lon="5.24356">
        <ele>464.93</ele>
        <time>2019-04-29T09:17:34Z</time>
      </trkpt>
      <trkpt lat="43.94511" lon="5.24354">
        <ele>464.93</ele>
        <time>2019-04-29T09:17:56Z</time>
      </trkpt>
      <trkpt lat="43.94513" lon="5.24353">
        <ele>465.42</ele>
        <time>2019-04-29T09:18:53Z</time>
      </trkpt>
      <trkpt lat="43.94514" lon="5.24353">
        <ele>464.45</ele>
        <time>2019-04-29T09:19:46Z</time>
      </trkpt>
      <trkpt lat="43.94519" lon="5.24355">
        <ele>464.45</ele>
        <time>2019-04-29T09:20:13Z</time>
      </trkpt>
      <trkpt lat="43.94525" lon="5.24362">
        <ele>464.45</ele>
        <time>2019-04-29T09:20:31Z</time>
      </trkpt>
      <trkpt lat="43.94532" lon="5.24363">
        <ele>467.82</ele>
        <time>2019-04-29T09:20:38Z</time>
      </trkpt>
      <trkpt lat="43.94546" lon="5.24371">
        <ele>469.26</ele>
        <time>2019-04-29T09:20:53Z</time>
      </trkpt>
      <trkpt lat="43.94554" lon="5.24382">
        <ele>469.74</ele>
        <time>2019-04-29T09:21:03Z</time>
      </trkpt>
      <trkpt lat="43.94563" lon="5.24411">
        <ele>470.22</ele>
        <time>2019-04-29T09:21:24Z</time>
      </trkpt>
      <trkpt lat="43.94571" lon="5.24422">
        <ele>470.22</ele>
        <time>2019-04-29T09:21:40Z</time>
      </trkpt>
      <trkpt lat="43.94574" lon="5.2443">
        <ele>469.26</ele>
        <time>2019-04-29T09:21:58Z</time>
      </trkpt>
      <trkpt lat="43.94575" lon="5.24434">
        <ele>470.22</ele>
        <time>2019-04-29T09:22:02Z</time>
      </trkpt>
      <trkpt lat="43.94575" lon="5.24465">
        <ele>470.22</ele>
        <time>2019-04-29T09:22:20Z</time>
      </trkpt>
      <trkpt lat="43.9458" lon="5.24472">
        <ele>469.26</ele>
        <time>2019-04-29T09:22:26Z</time>
      </trkpt>
      <trkpt lat="43.94598" lon="5.24464">
        <ele>469.74</ele>
        <time>2019-04-29T09:22:44Z</time>
      </trkpt>
      <trkpt lat="43.94615" lon="5.24459">
        <ele>472.63</ele>
        <time>2019-04-29T09:23:00Z</time>
      </trkpt>
      <trkpt lat="43.94629" lon="5.24454">
        <ele>474.55</ele>
        <time>2019-04-29T09:23:16Z</time>
      </trkpt>
      <trkpt lat="43.94635" lon="5.24452">
        <ele>475.03</ele>
        <time>2019-04-29T09:23:22Z</time>
      </trkpt>
      <trkpt lat="43.94644" lon="5.24451">
        <ele>476.47</ele>
        <time>2019-04-29T09:23:30Z</time>
      </trkpt>
      <trkpt lat="43.94659" lon="5.24453">
        <ele>478.39</ele>
        <time>2019-04-29T09:23:48Z</time>
      </trkpt>
      <trkpt lat="43.94672" lon="5.24458">
        <ele>479.35</ele>
        <time>2019-04-29T09:24:04Z</time>
      </trkpt>
      <trkpt lat="43.94676" lon="5.24459">
        <ele>480.32</ele>
        <time>2019-04-29T09:24:08Z</time>
      </trkpt>
      <trkpt lat="43.94688" lon="5.24453">
        <ele>482.24</ele>
        <time>2019-04-29T09:24:23Z</time>
      </trkpt>
      <trkpt lat="43.94704" lon="5.24444">
        <ele>484.64</ele>
        <time>2019-04-29T09:24:40Z</time>
      </trkpt>
      <trkpt lat="43.9472" lon="5.24435">
        <ele>487.53</ele>
        <time>2019-04-29T09:24:57Z</time>
      </trkpt>
      <trkpt lat="43.94731" lon="5.24419">
        <ele>489.45</ele>
        <time>2019-04-29T09:25:13Z</time>
      </trkpt>
      <trkpt lat="43.94742" lon="5.24409">
        <ele>492.81</ele>
        <time>2019-04-29T09:25:26Z</time>
      </trkpt>
      <trkpt lat="43.9476" lon="5.24409">
        <ele>495.7</ele>
        <time>2019-04-29T09:25:44Z</time>
      </trkpt>
      <trkpt lat="43.94767" lon="5.24409">
        <ele>496.18</ele>
        <time>2019-04-29T09:25:57Z</time>
      </trkpt>
      <trkpt lat="43.94782" lon="5.24413">
        <ele>498.58</ele>
        <time>2019-04-29T09:26:13Z</time>
      </trkpt>
      <trkpt lat="43.94792" lon="5.24418">
        <ele>500.5</ele>
        <time>2019-04-29T09:26:26Z</time>
      </trkpt>
      <trkpt lat="43.94804" lon="5.24427">
        <ele>502.43</ele>
        <time>2019-04-29T09:26:40Z</time>
      </trkpt>
      <trkpt lat="43.94815" lon="5.24432">
        <ele>505.31</ele>
        <time>2019-04-29T09:26:54Z</time>
      </trkpt>
      <trkpt lat="43.94818" lon="5.24416">
        <ele>507.23</ele>
        <time>2019-04-29T09:27:10Z</time>
      </trkpt>
      <trkpt lat="43.94813" lon="5.24395">
        <ele>510.12</ele>
        <time>2019-04-29T09:27:31Z</time>
      </trkpt>
      <trkpt lat="43.94812" lon="5.24373">
        <ele>513</ele>
        <time>2019-04-29T09:27:48Z</time>
      </trkpt>
      <trkpt lat="43.94816" lon="5.24365">
        <ele>515.4</ele>
        <time>2019-04-29T09:28:06Z</time>
      </trkpt>
      <trkpt lat="43.94825" lon="5.24355">
        <ele>518.29</ele>
        <time>2019-04-29T09:28:23Z</time>
      </trkpt>
      <trkpt lat="43.94831" lon="5.24345">
        <ele>519.25</ele>
        <time>2019-04-29T09:28:38Z</time>
      </trkpt>
      <trkpt lat="43.94831" lon="5.24345">
        <ele>519.73</ele>
        <time>2019-04-29T09:29:02Z</time>
      </trkpt>
      <trkpt lat="43.9483" lon="5.24345">
        <ele>518.77</ele>
        <time>2019-04-29T09:29:33Z</time>
      </trkpt>
      <trkpt lat="43.94831" lon="5.24344">
        <ele>518.77</ele>
        <time>2019-04-29T09:29:42Z</time>
      </trkpt>
      <trkpt lat="43.94842" lon="5.24328">
        <ele>518.77</ele>
        <time>2019-04-29T09:29:57Z</time>
      </trkpt>
      <trkpt lat="43.94853" lon="5.24307">
        <ele>518.77</ele>
        <time>2019-04-29T09:30:16Z</time>
      </trkpt>
      <trkpt lat="43.9487" lon="5.24282">
        <ele>520.69</ele>
        <time>2019-04-29T09:30:36Z</time>
      </trkpt>
      <trkpt lat="43.94878" lon="5.24269">
        <ele>519.25</ele>
        <time>2019-04-29T09:30:47Z</time>
      </trkpt>
      <trkpt lat="43.94891" lon="5.2426">
        <ele>520.21</ele>
        <time>2019-04-29T09:31:02Z</time>
      </trkpt>
      <trkpt lat="43.94909" lon="5.24256">
        <ele>521.17</ele>
        <time>2019-04-29T09:31:19Z</time>
      </trkpt>
      <trkpt lat="43.94927" lon="5.24248">
        <ele>519.73</ele>
        <time>2019-04-29T09:31:39Z</time>
      </trkpt>
      <trkpt lat="43.94947" lon="5.24242">
        <ele>517.81</ele>
        <time>2019-04-29T09:31:54Z</time>
      </trkpt>
      <trkpt lat="43.94956" lon="5.24239">
        <ele>519.25</ele>
        <time>2019-04-29T09:32:01Z</time>
      </trkpt>
      <trkpt lat="43.94966" lon="5.24243">
        <ele>518.77</ele>
        <time>2019-04-29T09:32:10Z</time>
      </trkpt>
      <trkpt lat="43.94977" lon="5.24239">
        <ele>518.29</ele>
        <time>2019-04-29T09:32:19Z</time>
      </trkpt>
      <trkpt lat="43.94997" lon="5.2425">
        <ele>518.29</ele>
        <time>2019-04-29T09:32:35Z</time>
      </trkpt>
      <trkpt lat="43.95008" lon="5.24264">
        <ele>518.29</ele>
        <time>2019-04-29T09:32:48Z</time>
      </trkpt>
      <trkpt lat="43.95021" lon="5.24277">
        <ele>517.81</ele>
        <time>2019-04-29T09:33:03Z</time>
      </trkpt>
      <trkpt lat="43.95041" lon="5.24288">
        <ele>517.33</ele>
        <time>2019-04-29T09:33:19Z</time>
      </trkpt>
      <trkpt lat="43.95045" lon="5.24289">
        <ele>517.33</ele>
        <time>2019-04-29T09:33:23Z</time>
      </trkpt>
      <trkpt lat="43.9505" lon="5.24292">
        <ele>516.85</ele>
        <time>2019-04-29T09:33:27Z</time>
      </trkpt>
      <trkpt lat="43.95068" lon="5.24302">
        <ele>515.4</ele>
        <time>2019-04-29T09:33:43Z</time>
      </trkpt>
      <trkpt lat="43.9508" lon="5.24312">
        <ele>514.92</ele>
        <time>2019-04-29T09:33:56Z</time>
      </trkpt>
      <trkpt lat="43.95092" lon="5.24325">
        <ele>514.92</ele>
        <time>2019-04-29T09:34:11Z</time>
      </trkpt>
      <trkpt lat="43.951" lon="5.24344">
        <ele>514.92</ele>
        <time>2019-04-29T09:34:29Z</time>
      </trkpt>
      <trkpt lat="43.95109" lon="5.24326">
        <ele>513.96</ele>
        <time>2019-04-29T09:34:47Z</time>
      </trkpt>
      <trkpt lat="43.95111" lon="5.24316">
        <ele>514.44</ele>
        <time>2019-04-29T09:35:10Z</time>
      </trkpt>
      <trkpt lat="43.95112" lon="5.24312">
        <ele>514.44</ele>
        <time>2019-04-29T09:35:14Z</time>
      </trkpt>
      <trkpt lat="43.95113" lon="5.2431">
        <ele>514.44</ele>
        <time>2019-04-29T09:35:16Z</time>
      </trkpt>
      <trkpt lat="43.95116" lon="5.24293">
        <ele>514.92</ele>
        <time>2019-04-29T09:35:31Z</time>
      </trkpt>
      <trkpt lat="43.95118" lon="5.2429">
        <ele>515.4</ele>
        <time>2019-04-29T09:35:36Z</time>
      </trkpt>
      <trkpt lat="43.95118" lon="5.24286">
        <ele>514.92</ele>
        <time>2019-04-29T09:35:39Z</time>
      </trkpt>
      <trkpt lat="43.95121" lon="5.24258">
        <ele>516.37</ele>
        <time>2019-04-29T09:36:00Z</time>
      </trkpt>
      <trkpt lat="43.95123" lon="5.24249">
        <ele>516.85</ele>
        <time>2019-04-29T09:36:06Z</time>
      </trkpt>
      <trkpt lat="43.95128" lon="5.24234">
        <ele>517.33</ele>
        <time>2019-04-29T09:36:22Z</time>
      </trkpt>
      <trkpt lat="43.9513" lon="5.24237">
        <ele>516.37</ele>
        <time>2019-04-29T09:36:38Z</time>
      </trkpt>
      <trkpt lat="43.9513" lon="5.24232">
        <ele>516.37</ele>
        <time>2019-04-29T09:37:04Z</time>
      </trkpt>
      <trkpt lat="43.95145" lon="5.24225">
        <ele>517.81</ele>
        <time>2019-04-29T09:37:25Z</time>
      </trkpt>
      <trkpt lat="43.95161" lon="5.24228">
        <ele>520.69</ele>
        <time>2019-04-29T09:37:48Z</time>
      </trkpt>
      <trkpt lat="43.95173" lon="5.24218">
        <ele>522.61</ele>
        <time>2019-04-29T09:38:11Z</time>
      </trkpt>
      <trkpt lat="43.95172" lon="5.24207">
        <ele>525.5</ele>
        <time>2019-04-29T09:38:32Z</time>
      </trkpt>
      <trkpt lat="43.95174" lon="5.24197">
        <ele>524.54</ele>
        <time>2019-04-29T09:38:46Z</time>
      </trkpt>
      <trkpt lat="43.95183" lon="5.24177">
        <ele>523.58</ele>
        <time>2019-04-29T09:39:12Z</time>
      </trkpt>
      <trkpt lat="43.95202" lon="5.24177">
        <ele>525.02</ele>
        <time>2019-04-29T09:39:34Z</time>
      </trkpt>
      <trkpt lat="43.95222" lon="5.24177">
        <ele>527.42</ele>
        <time>2019-04-29T09:39:54Z</time>
      </trkpt>
      <trkpt lat="43.95222" lon="5.24168">
        <ele>529.34</ele>
        <time>2019-04-29T09:40:05Z</time>
      </trkpt>
      <trkpt lat="43.95221" lon="5.24178">
        <ele>529.82</ele>
        <time>2019-04-29T09:40:20Z</time>
      </trkpt>
      <trkpt lat="43.95218" lon="5.24183">
        <ele>533.19</ele>
        <time>2019-04-29T09:40:34Z</time>
      </trkpt>
      <trkpt lat="43.95224" lon="5.24187">
        <ele>534.63</ele>
        <time>2019-04-29T09:40:51Z</time>
      </trkpt>
      <trkpt lat="43.95234" lon="5.24196">
        <ele>536.55</ele>
        <time>2019-04-29T09:41:09Z</time>
      </trkpt>
      <trkpt lat="43.95235" lon="5.24199">
        <ele>537.51</ele>
        <time>2019-04-29T09:41:21Z</time>
      </trkpt>
      <trkpt lat="43.95233" lon="5.24189">
        <ele>537.99</ele>
        <time>2019-04-29T09:41:56Z</time>
      </trkpt>
      <trkpt lat="43.95234" lon="5.24187">
        <ele>537.99</ele>
        <time>2019-04-29T09:42:16Z</time>
      </trkpt>
      <trkpt lat="43.95234" lon="5.24187">
        <ele>537.51</ele>
        <time>2019-04-29T09:42:38Z</time>
      </trkpt>
      <trkpt lat="43.95232" lon="5.24179">
        <ele>536.07</ele>
        <time>2019-04-29T09:43:01Z</time>
      </trkpt>
      <trkpt lat="43.9523" lon="5.24167">
        <ele>536.55</ele>
        <time>2019-04-29T09:43:20Z</time>
      </trkpt>
      <trkpt lat="43.95229" lon="5.24172">
        <ele>535.59</ele>
        <time>2019-04-29T09:43:56Z</time>
      </trkpt>
      <trkpt lat="43.95227" lon="5.24168">
        <ele>535.59</ele>
        <time>2019-04-29T09:44:19Z</time>
      </trkpt>
      <trkpt lat="43.95229" lon="5.24167">
        <ele>536.55</ele>
        <time>2019-04-29T09:44:47Z</time>
      </trkpt>
      <trkpt lat="43.95228" lon="5.24168">
        <ele>535.59</ele>
        <time>2019-04-29T09:45:17Z</time>
      </trkpt>
      <trkpt lat="43.95229" lon="5.2417">
        <ele>535.11</ele>
        <time>2019-04-29T09:45:41Z</time>
      </trkpt>
      <trkpt lat="43.95227" lon="5.2417">
        <ele>535.11</ele>
        <time>2019-04-29T09:46:12Z</time>
      </trkpt>
      <trkpt lat="43.95227" lon="5.24186">
        <ele>536.07</ele>
        <time>2019-04-29T09:46:29Z</time>
      </trkpt>
      <trkpt lat="43.95216" lon="5.24185">
        <ele>534.15</ele>
        <time>2019-04-29T09:46:47Z</time>
      </trkpt>
      <trkpt lat="43.95223" lon="5.24171">
        <ele>530.79</ele>
        <time>2019-04-29T09:47:03Z</time>
      </trkpt>
      <trkpt lat="43.95218" lon="5.24169">
        <ele>528.38</ele>
        <time>2019-04-29T09:47:15Z</time>
      </trkpt>
      <trkpt lat="43.952" lon="5.24171">
        <ele>527.42</ele>
        <time>2019-04-29T09:47:34Z</time>
      </trkpt>
      <trkpt lat="43.95199" lon="5.24169">
        <ele>524.54</ele>
        <time>2019-04-29T09:47:41Z</time>
      </trkpt>
      <trkpt lat="43.95202" lon="5.24149">
        <ele>521.17</ele>
        <time>2019-04-29T09:47:56Z</time>
      </trkpt>
      <trkpt lat="43.95202" lon="5.2414">
        <ele>520.21</ele>
        <time>2019-04-29T09:48:15Z</time>
      </trkpt>
      <trkpt lat="43.95191" lon="5.24143">
        <ele>519.73</ele>
        <time>2019-04-29T09:48:28Z</time>
      </trkpt>
      <trkpt lat="43.95184" lon="5.24141">
        <ele>519.73</ele>
        <time>2019-04-29T09:48:42Z</time>
      </trkpt>
      <trkpt lat="43.95186" lon="5.24132">
        <ele>517.81</ele>
        <time>2019-04-29T09:49:04Z</time>
      </trkpt>
      <trkpt lat="43.95169" lon="5.2412">
        <ele>515.4</ele>
        <time>2019-04-29T09:49:35Z</time>
      </trkpt>
      <trkpt lat="43.95148" lon="5.24134">
        <ele>516.37</ele>
        <time>2019-04-29T09:50:00Z</time>
      </trkpt>
      <trkpt lat="43.9513" lon="5.2415">
        <ele>516.85</ele>
        <time>2019-04-29T09:50:20Z</time>
      </trkpt>
      <trkpt lat="43.95128" lon="5.24179">
        <ele>518.29</ele>
        <time>2019-04-29T09:50:42Z</time>
      </trkpt>
      <trkpt lat="43.95129" lon="5.2418">
        <ele>517.33</ele>
        <time>2019-04-29T09:51:03Z</time>
      </trkpt>
      <trkpt lat="43.95136" lon="5.24178">
        <ele>516.85</ele>
        <time>2019-04-29T09:51:23Z</time>
      </trkpt>
      <trkpt lat="43.95137" lon="5.24173">
        <ele>517.33</ele>
        <time>2019-04-29T09:51:55Z</time>
      </trkpt>
      <trkpt lat="43.95138" lon="5.24175">
        <ele>516.85</ele>
        <time>2019-04-29T09:52:25Z</time>
      </trkpt>
      <trkpt lat="43.9513" lon="5.24175">
        <ele>516.85</ele>
        <time>2019-04-29T09:52:46Z</time>
      </trkpt>
      <trkpt lat="43.95126" lon="5.2418">
        <ele>516.85</ele>
        <time>2019-04-29T09:52:53Z</time>
      </trkpt>
      <trkpt lat="43.95122" lon="5.2421">
        <ele>516.37</ele>
        <time>2019-04-29T09:53:11Z</time>
      </trkpt>
      <trkpt lat="43.95123" lon="5.24213">
        <ele>515.88</ele>
        <time>2019-04-29T09:53:13Z</time>
      </trkpt>
      <trkpt lat="43.95125" lon="5.24219">
        <ele>516.85</ele>
        <time>2019-04-29T09:53:17Z</time>
      </trkpt>
      <trkpt lat="43.95129" lon="5.24233">
        <ele>516.85</ele>
        <time>2019-04-29T09:53:28Z</time>
      </trkpt>
      <trkpt lat="43.95132" lon="5.24219">
        <ele>517.33</ele>
        <time>2019-04-29T09:53:44Z</time>
      </trkpt>
      <trkpt lat="43.95129" lon="5.2419">
        <ele>517.81</ele>
        <time>2019-04-29T09:53:58Z</time>
      </trkpt>
      <trkpt lat="43.95131" lon="5.24179">
        <ele>517.33</ele>
        <time>2019-04-29T09:54:13Z</time>
      </trkpt>
      <trkpt lat="43.95135" lon="5.24178">
        <ele>516.37</ele>
        <time>2019-04-29T09:54:31Z</time>
      </trkpt>
      <trkpt lat="43.95137" lon="5.24175">
        <ele>516.37</ele>
        <time>2019-04-29T09:54:58Z</time>
      </trkpt>
      <trkpt lat="43.95139" lon="5.24177">
        <ele>515.88</ele>
        <time>2019-04-29T09:55:41Z</time>
      </trkpt>
      <trkpt lat="43.95135" lon="5.24175">
        <ele>515.4</ele>
        <time>2019-04-29T09:56:13Z</time>
      </trkpt>
      <trkpt lat="43.95131" lon="5.24172">
        <ele>515.4</ele>
        <time>2019-04-29T09:56:49Z</time>
      </trkpt>
      <trkpt lat="43.95132" lon="5.24171">
        <ele>515.4</ele>
        <time>2019-04-29T09:57:25Z</time>
      </trkpt>
      <trkpt lat="43.95132" lon="5.2417">
        <ele>515.4</ele>
        <time>2019-04-29T09:58:06Z</time>
      </trkpt>
      <trkpt lat="43.95131" lon="5.24171">
        <ele>515.4</ele>
        <time>2019-04-29T09:58:48Z</time>
      </trkpt>
      <trkpt lat="43.95128" lon="5.24173">
        <ele>515.4</ele>
        <time>2019-04-29T09:59:27Z</time>
      </trkpt>
      <trkpt lat="43.95127" lon="5.24172">
        <ele>515.4</ele>
        <time>2019-04-29T10:00:09Z</time>
      </trkpt>
      <trkpt lat="43.95126" lon="5.24173">
        <ele>515.4</ele>
        <time>2019-04-29T10:00:48Z</time>
      </trkpt>
      <trkpt lat="43.95133" lon="5.24178">
        <ele>515.4</ele>
        <time>2019-04-29T10:01:29Z</time>
      </trkpt>
      <trkpt lat="43.95135" lon="5.24174">
        <ele>515.4</ele>
        <time>2019-04-29T10:02:07Z</time>
      </trkpt>
      <trkpt lat="43.95133" lon="5.2417">
        <ele>515.4</ele>
        <time>2019-04-29T10:02:44Z</time>
      </trkpt>
      <trkpt lat="43.95131" lon="5.24172">
        <ele>515.4</ele>
        <time>2019-04-29T10:03:21Z</time>
      </trkpt>
      <trkpt lat="43.95136" lon="5.24171">
        <ele>515.4</ele>
        <time>2019-04-29T10:03:50Z</time>
      </trkpt>
      <trkpt lat="43.95137" lon="5.24171">
        <ele>512.04</ele>
        <time>2019-04-29T10:03:51Z</time>
      </trkpt>
      <trkpt lat="43.95137" lon="5.24171">
        <ele>512.04</ele>
        <time>2019-04-29T10:03:52Z</time>
      </trkpt>
      <trkpt lat="43.95137" lon="5.24173">
        <ele>512.52</ele>
        <time>2019-04-29T10:04:20Z</time>
      </trkpt>
      <trkpt lat="43.95131" lon="5.24174">
        <ele>511.56</ele>
        <time>2019-04-29T10:05:25Z</time>
      </trkpt>
      <trkpt lat="43.95128" lon="5.24171">
        <ele>511.56</ele>
        <time>2019-04-29T10:07:01Z</time>
      </trkpt>
      <trkpt lat="43.95133" lon="5.24172">
        <ele>511.56</ele>
        <time>2019-04-29T10:07:41Z</time>
      </trkpt>
      <trkpt lat="43.95133" lon="5.24173">
        <ele>511.56</ele>
        <time>2019-04-29T10:08:21Z</time>
      </trkpt>
      <trkpt lat="43.95128" lon="5.24171">
        <ele>511.56</ele>
        <time>2019-04-29T10:08:58Z</time>
      </trkpt>
      <trkpt lat="43.95128" lon="5.2417">
        <ele>511.56</ele>
        <time>2019-04-29T10:09:33Z</time>
      </trkpt>
      <trkpt lat="43.9513" lon="5.24172">
        <ele>511.56</ele>
        <time>2019-04-29T10:10:11Z</time>
      </trkpt>
      <trkpt lat="43.95131" lon="5.2417">
        <ele>511.56</ele>
        <time>2019-04-29T10:10:49Z</time>
      </trkpt>
      <trkpt lat="43.95132" lon="5.24171">
        <ele>511.56</ele>
        <time>2019-04-29T10:11:27Z</time>
      </trkpt>
      <trkpt lat="43.95132" lon="5.24168">
        <ele>511.56</ele>
        <time>2019-04-29T10:12:04Z</time>
      </trkpt>
      <trkpt lat="43.95135" lon="5.24175">
        <ele>511.56</ele>
        <time>2019-04-29T10:12:43Z</time>
      </trkpt>
      <trkpt lat="43.95133" lon="5.24175">
        <ele>511.56</ele>
        <time>2019-04-29T10:13:21Z</time>
      </trkpt>
      <trkpt lat="43.95134" lon="5.24172">
        <ele>511.56</ele>
        <time>2019-04-29T10:13:56Z</time>
      </trkpt>
      <trkpt lat="43.95138" lon="5.24176">
        <ele>511.56</ele>
        <time>2019-04-29T10:14:36Z</time>
      </trkpt>
      <trkpt lat="43.95137" lon="5.24177">
        <ele>511.56</ele>
        <time>2019-04-29T10:15:14Z</time>
      </trkpt>
      <trkpt lat="43.9513" lon="5.24173">
        <ele>511.56</ele>
        <time>2019-04-29T10:15:46Z</time>
      </trkpt>
      <trkpt lat="43.95129" lon="5.24172">
        <ele>511.56</ele>
        <time>2019-04-29T10:16:20Z</time>
      </trkpt>
      <trkpt lat="43.95139" lon="5.24178">
        <ele>511.56</ele>
        <time>2019-04-29T10:17:05Z</time>
      </trkpt>
      <trkpt lat="43.95137" lon="5.24175">
        <ele>511.56</ele>
        <time>2019-04-29T10:17:47Z</time>
      </trkpt>
      <trkpt lat="43.95141" lon="5.24174">
        <ele>511.56</ele>
        <time>2019-04-29T10:18:26Z</time>
      </trkpt>
      <trkpt lat="43.95137" lon="5.24179">
        <ele>511.56</ele>
        <time>2019-04-29T10:19:05Z</time>
      </trkpt>
      <trkpt lat="43.95132" lon="5.24179">
        <ele>511.56</ele>
        <time>2019-04-29T10:19:47Z</time>
      </trkpt>
      <trkpt lat="43.95131" lon="5.24175">
        <ele>511.56</ele>
        <time>2019-04-29T10:20:36Z</time>
      </trkpt>
      <trkpt lat="43.95135" lon="5.24178">
        <ele>511.56</ele>
        <time>2019-04-29T10:21:17Z</time>
      </trkpt>
      <trkpt lat="43.95136" lon="5.24179">
        <ele>511.56</ele>
        <time>2019-04-29T10:22:03Z</time>
      </trkpt>
      <trkpt lat="43.95137" lon="5.24178">
        <ele>511.56</ele>
        <time>2019-04-29T10:22:40Z</time>
      </trkpt>
      <trkpt lat="43.95138" lon="5.24176">
        <ele>511.56</ele>
        <time>2019-04-29T10:23:06Z</time>
      </trkpt>
      <trkpt lat="43.95136" lon="5.24175">
        <ele>511.56</ele>
        <time>2019-04-29T10:23:38Z</time>
      </trkpt>
      <trkpt lat="43.95137" lon="5.24177">
        <ele>511.56</ele>
        <time>2019-04-29T10:24:13Z</time>
      </trkpt>
      <trkpt lat="43.95132" lon="5.24177">
        <ele>511.56</ele>
        <time>2019-04-29T10:24:53Z</time>
      </trkpt>
      <trkpt lat="43.95134" lon="5.24176">
        <ele>511.56</ele>
        <time>2019-04-29T10:25:23Z</time>
      </trkpt>
      <trkpt lat="43.95132" lon="5.24178">
        <ele>511.56</ele>
        <time>2019-04-29T10:25:53Z</time>
      </trkpt>
      <trkpt lat="43.95131" lon="5.24176">
        <ele>511.56</ele>
        <time>2019-04-29T10:26:50Z</time>
      </trkpt>
      <trkpt lat="43.95134" lon="5.24176">
        <ele>511.56</ele>
        <time>2019-04-29T10:27:30Z</time>
      </trkpt>
      <trkpt lat="43.95136" lon="5.24176">
        <ele>511.56</ele>
        <time>2019-04-29T10:28:08Z</time>
      </trkpt>
      <trkpt lat="43.95132" lon="5.24177">
        <ele>511.56</ele>
        <time>2019-04-29T10:28:53Z</time>
      </trkpt>
      <trkpt lat="43.95131" lon="5.24177">
        <ele>511.56</ele>
        <time>2019-04-29T10:30:45Z</time>
      </trkpt>
      <trkpt lat="43.95133" lon="5.24177">
        <ele>511.56</ele>
        <time>2019-04-29T10:32:37Z</time>
      </trkpt>
      <trkpt lat="43.95136" lon="5.2418">
        <ele>511.56</ele>
        <time>2019-04-29T10:34:21Z</time>
      </trkpt>
      <trkpt lat="43.95136" lon="5.24177">
        <ele>511.56</ele>
        <time>2019-04-29T10:35:20Z</time>
      </trkpt>
      <trkpt lat="43.95135" lon="5.24176">
        <ele>511.56</ele>
        <time>2019-04-29T10:36:07Z</time>
      </trkpt>
      <trkpt lat="43.95136" lon="5.24177">
        <ele>511.56</ele>
        <time>2019-04-29T10:36:58Z</time>
      </trkpt>
      <trkpt lat="43.95135" lon="5.24179">
        <ele>511.56</ele>
        <time>2019-04-29T10:38:37Z</time>
      </trkpt>
      <trkpt lat="43.95136" lon="5.24179">
        <ele>511.56</ele>
        <time>2019-04-29T10:40:25Z</time>
      </trkpt>
      <trkpt lat="43.95134" lon="5.24178">
        <ele>511.56</ele>
        <time>2019-04-29T10:41:28Z</time>
      </trkpt>
      <trkpt lat="43.95135" lon="5.24176">
        <ele>511.56</ele>
        <time>2019-04-29T10:42:09Z</time>
      </trkpt>
      <trkpt lat="43.95136" lon="5.24178">
        <ele>511.56</ele>
        <time>2019-04-29T10:43:02Z</time>
      </trkpt>
      <trkpt lat="43.95139" lon="5.24178">
        <ele>511.56</ele>
        <time>2019-04-29T10:44:10Z</time>
      </trkpt>
      <trkpt lat="43.95139" lon="5.24174">
        <ele>511.56</ele>
        <time>2019-04-29T10:44:41Z</time>
      </trkpt>
      <trkpt lat="43.9514" lon="5.24176">
        <ele>511.56</ele>
        <time>2019-04-29T10:45:32Z</time>
      </trkpt>
      <trkpt lat="43.95141" lon="5.24179">
        <ele>511.56</ele>
        <time>2019-04-29T10:45:56Z</time>
      </trkpt>
      <trkpt lat="43.95138" lon="5.24175">
        <ele>511.56</ele>
        <time>2019-04-29T10:46:21Z</time>
      </trkpt>
      <trkpt lat="43.95136" lon="5.24175">
        <ele>511.56</ele>
        <time>2019-04-29T10:46:46Z</time>
      </trkpt>
      <trkpt lat="43.95139" lon="5.24178">
        <ele>511.56</ele>
        <time>2019-04-29T10:47:21Z</time>
      </trkpt>
      <trkpt lat="43.95138" lon="5.24177">
        <ele>511.56</ele>
        <time>2019-04-29T10:47:49Z</time>
      </trkpt>
      <trkpt lat="43.95137" lon="5.24175">
        <ele>511.56</ele>
        <time>2019-04-29T10:48:26Z</time>
      </trkpt>
      <trkpt lat="43.95138" lon="5.24176">
        <ele>511.56</ele>
        <time>2019-04-29T10:48:54Z</time>
      </trkpt>
      <trkpt lat="43.95138" lon="5.24177">
        <ele>511.56</ele>
        <time>2019-04-29T10:49:12Z</time>
      </trkpt>
      <trkpt lat="43.95137" lon="5.24179">
        <ele>511.56</ele>
        <time>2019-04-29T10:49:34Z</time>
      </trkpt>
      <trkpt lat="43.95137" lon="5.2418">
        <ele>511.56</ele>
        <time>2019-04-29T10:50:03Z</time>
      </trkpt>
      <trkpt lat="43.95132" lon="5.24178">
        <ele>511.56</ele>
        <time>2019-04-29T10:50:22Z</time>
      </trkpt>
      <trkpt lat="43.95128" lon="5.24183">
        <ele>511.56</ele>
        <time>2019-04-29T10:50:34Z</time>
      </trkpt>
      <trkpt lat="43.95121" lon="5.24194">
        <ele>509.64</ele>
        <time>2019-04-29T10:50:45Z</time>
      </trkpt>
      <trkpt lat="43.95119" lon="5.24183">
        <ele>508.19</ele>
        <time>2019-04-29T10:51:00Z</time>
      </trkpt>
      <trkpt lat="43.95121" lon="5.24162">
        <ele>506.75</ele>
        <time>2019-04-29T10:51:16Z</time>
      </trkpt>
      <trkpt lat="43.95119" lon="5.24161">
        <ele>505.31</ele>
        <time>2019-04-29T10:51:38Z</time>
      </trkpt>
      <trkpt lat="43.95118" lon="5.24165">
        <ele>505.31</ele>
        <time>2019-04-29T10:52:16Z</time>
      </trkpt>
      <trkpt lat="43.95116" lon="5.24164">
        <ele>505.31</ele>
        <time>2019-04-29T10:52:53Z</time>
      </trkpt>
      <trkpt lat="43.95118" lon="5.24163">
        <ele>505.79</ele>
        <time>2019-04-29T10:53:28Z</time>
      </trkpt>
      <trkpt lat="43.95116" lon="5.24163">
        <ele>505.79</ele>
        <time>2019-04-29T10:55:53Z</time>
      </trkpt>
      <trkpt lat="43.95117" lon="5.24164">
        <ele>505.79</ele>
        <time>2019-04-29T10:56:59Z</time>
      </trkpt>
      <trkpt lat="43.95115" lon="5.24159">
        <ele>505.79</ele>
        <time>2019-04-29T10:57:42Z</time>
      </trkpt>
      <trkpt lat="43.95116" lon="5.24148">
        <ele>506.75</ele>
        <time>2019-04-29T10:57:55Z</time>
      </trkpt>
      <trkpt lat="43.95113" lon="5.24131">
        <ele>505.79</ele>
        <time>2019-04-29T10:58:14Z</time>
      </trkpt>
      <trkpt lat="43.9511" lon="5.24115">
        <ele>503.39</ele>
        <time>2019-04-29T10:58:32Z</time>
      </trkpt>
      <trkpt lat="43.95102" lon="5.24092">
        <ele>502.43</ele>
        <time>2019-04-29T10:58:53Z</time>
      </trkpt>
      <trkpt lat="43.951" lon="5.24072">
        <ele>501.46</ele>
        <time>2019-04-29T10:59:12Z</time>
      </trkpt>
      <trkpt lat="43.95101" lon="5.24057">
        <ele>500.98</ele>
        <time>2019-04-29T10:59:23Z</time>
      </trkpt>
      <trkpt lat="43.95104" lon="5.24043">
        <ele>500.98</ele>
        <time>2019-04-29T10:59:35Z</time>
      </trkpt>
      <trkpt lat="43.95109" lon="5.24023">
        <ele>499.54</ele>
        <time>2019-04-29T10:59:49Z</time>
      </trkpt>
      <trkpt lat="43.95118" lon="5.24014">
        <ele>499.54</ele>
        <time>2019-04-29T11:00:01Z</time>
      </trkpt>
      <trkpt lat="43.95139" lon="5.24012">
        <ele>496.66</ele>
        <time>2019-04-29T11:00:21Z</time>
      </trkpt>
      <trkpt lat="43.95156" lon="5.24016">
        <ele>495.7</ele>
        <time>2019-04-29T11:00:39Z</time>
      </trkpt>
      <trkpt lat="43.95169" lon="5.2402">
        <ele>494.26</ele>
        <time>2019-04-29T11:00:53Z</time>
      </trkpt>
      <trkpt lat="43.95182" lon="5.24024">
        <ele>493.77</ele>
        <time>2019-04-29T11:01:08Z</time>
      </trkpt>
      <trkpt lat="43.95198" lon="5.24003">
        <ele>491.37</ele>
        <time>2019-04-29T11:01:28Z</time>
      </trkpt>
      <trkpt lat="43.95184" lon="5.23983">
        <ele>489.93</ele>
        <time>2019-04-29T11:01:46Z</time>
      </trkpt>
      <trkpt lat="43.95169" lon="5.23969">
        <ele>488.49</ele>
        <time>2019-04-29T11:02:02Z</time>
      </trkpt>
      <trkpt lat="43.95149" lon="5.23951">
        <ele>485.6</ele>
        <time>2019-04-29T11:02:24Z</time>
      </trkpt>
      <trkpt lat="43.95128" lon="5.23931">
        <ele>484.16</ele>
        <time>2019-04-29T11:02:48Z</time>
      </trkpt>
      <trkpt lat="43.95119" lon="5.23922">
        <ele>480.8</ele>
        <time>2019-04-29T11:02:59Z</time>
      </trkpt>
      <trkpt lat="43.95101" lon="5.2391">
        <ele>479.84</ele>
        <time>2019-04-29T11:03:18Z</time>
      </trkpt>
      <trkpt lat="43.95085" lon="5.23899">
        <ele>478.87</ele>
        <time>2019-04-29T11:03:35Z</time>
      </trkpt>
      <trkpt lat="43.95073" lon="5.23895">
        <ele>478.87</ele>
        <time>2019-04-29T11:03:53Z</time>
      </trkpt>
      <trkpt lat="43.95059" lon="5.23891">
        <ele>477.43</ele>
        <time>2019-04-29T11:04:09Z</time>
      </trkpt>
      <trkpt lat="43.95043" lon="5.23879">
        <ele>475.51</ele>
        <time>2019-04-29T11:04:28Z</time>
      </trkpt>
      <trkpt lat="43.95037" lon="5.23866">
        <ele>474.55</ele>
        <time>2019-04-29T11:04:44Z</time>
      </trkpt>
      <trkpt lat="43.95034" lon="5.23854">
        <ele>472.63</ele>
        <time>2019-04-29T11:05:01Z</time>
      </trkpt>
      <trkpt lat="43.95033" lon="5.23853">
        <ele>472.63</ele>
        <time>2019-04-29T11:05:23Z</time>
      </trkpt>
      <trkpt lat="43.9503" lon="5.23849">
        <ele>473.11</ele>
        <time>2019-04-29T11:05:27Z</time>
      </trkpt>
      <trkpt lat="43.95029" lon="5.23845">
        <ele>473.59</ele>
        <time>2019-04-29T11:05:30Z</time>
      </trkpt>
      <trkpt lat="43.95026" lon="5.23827">
        <ele>471.18</ele>
        <time>2019-04-29T11:05:43Z</time>
      </trkpt>
      <trkpt lat="43.95017" lon="5.23801">
        <ele>469.26</ele>
        <time>2019-04-29T11:06:02Z</time>
      </trkpt>
      <trkpt lat="43.95016" lon="5.23797">
        <ele>468.78</ele>
        <time>2019-04-29T11:06:06Z</time>
      </trkpt>
      <trkpt lat="43.95009" lon="5.23771">
        <ele>468.78</ele>
        <time>2019-04-29T11:06:24Z</time>
      </trkpt>
      <trkpt lat="43.95001" lon="5.23745">
        <ele>468.3</ele>
        <time>2019-04-29T11:06:42Z</time>
      </trkpt>
      <trkpt lat="43.94995" lon="5.23724">
        <ele>467.34</ele>
        <time>2019-04-29T11:06:57Z</time>
      </trkpt>
      <trkpt lat="43.94986" lon="5.23698">
        <ele>467.34</ele>
        <time>2019-04-29T11:07:17Z</time>
      </trkpt>
      <trkpt lat="43.9498" lon="5.2368">
        <ele>466.38</ele>
        <time>2019-04-29T11:07:30Z</time>
      </trkpt>
      <trkpt lat="43.94973" lon="5.23661">
        <ele>465.42</ele>
        <time>2019-04-29T11:07:46Z</time>
      </trkpt>
      <trkpt lat="43.94961" lon="5.23628">
        <ele>463.49</ele>
        <time>2019-04-29T11:08:07Z</time>
      </trkpt>
      <trkpt lat="43.9495" lon="5.23593">
        <ele>463.49</ele>
        <time>2019-04-29T11:08:31Z</time>
      </trkpt>
      <trkpt lat="43.94942" lon="5.23564">
        <ele>462.05</ele>
        <time>2019-04-29T11:08:50Z</time>
      </trkpt>
      <trkpt lat="43.94934" lon="5.23539">
        <ele>461.09</ele>
        <time>2019-04-29T11:09:07Z</time>
      </trkpt>
      <trkpt lat="43.94926" lon="5.23498">
        <ele>460.13</ele>
        <time>2019-04-29T11:09:34Z</time>
      </trkpt>
      <trkpt lat="43.94921" lon="5.23471">
        <ele>458.69</ele>
        <time>2019-04-29T11:09:52Z</time>
      </trkpt>
      <trkpt lat="43.94918" lon="5.23444">
        <ele>458.21</ele>
        <time>2019-04-29T11:10:10Z</time>
      </trkpt>
      <trkpt lat="43.94908" lon="5.23414">
        <ele>455.8</ele>
        <time>2019-04-29T11:10:31Z</time>
      </trkpt>
      <trkpt lat="43.94901" lon="5.23398">
        <ele>454.36</ele>
        <time>2019-04-29T11:10:43Z</time>
      </trkpt>
      <trkpt lat="43.949" lon="5.23392">
        <ele>454.36</ele>
        <time>2019-04-29T11:10:47Z</time>
      </trkpt>
      <trkpt lat="43.94895" lon="5.23367">
        <ele>452.44</ele>
        <time>2019-04-29T11:11:06Z</time>
      </trkpt>
      <trkpt lat="43.9489" lon="5.23343">
        <ele>451.48</ele>
        <time>2019-04-29T11:11:22Z</time>
      </trkpt>
      <trkpt lat="43.94884" lon="5.23319">
        <ele>451.96</ele>
        <time>2019-04-29T11:11:38Z</time>
      </trkpt>
      <trkpt lat="43.94887" lon="5.23301">
        <ele>451.96</ele>
        <time>2019-04-29T11:11:52Z</time>
      </trkpt>
      <trkpt lat="43.94891" lon="5.2328">
        <ele>451.96</ele>
        <time>2019-04-29T11:12:08Z</time>
      </trkpt>
      <trkpt lat="43.94894" lon="5.23256">
        <ele>451</ele>
        <time>2019-04-29T11:12:25Z</time>
      </trkpt>
      <trkpt lat="43.94891" lon="5.23242">
        <ele>450.52</ele>
        <time>2019-04-29T11:12:34Z</time>
      </trkpt>
      <trkpt lat="43.94892" lon="5.23213">
        <ele>450.52</ele>
        <time>2019-04-29T11:12:53Z</time>
      </trkpt>
      <trkpt lat="43.94893" lon="5.23182">
        <ele>449.07</ele>
        <time>2019-04-29T11:13:13Z</time>
      </trkpt>
      <trkpt lat="43.94896" lon="5.23154">
        <ele>451</ele>
        <time>2019-04-29T11:13:31Z</time>
      </trkpt>
      <trkpt lat="43.94894" lon="5.23125">
        <ele>451.96</ele>
        <time>2019-04-29T11:13:50Z</time>
      </trkpt>
      <trkpt lat="43.94888" lon="5.23105">
        <ele>451.48</ele>
        <time>2019-04-29T11:14:06Z</time>
      </trkpt>
      <trkpt lat="43.94872" lon="5.23089">
        <ele>449.07</ele>
        <time>2019-04-29T11:14:22Z</time>
      </trkpt>
      <trkpt lat="43.94859" lon="5.23078">
        <ele>447.63</ele>
        <time>2019-04-29T11:14:33Z</time>
      </trkpt>
      <trkpt lat="43.94841" lon="5.23066">
        <ele>446.19</ele>
        <time>2019-04-29T11:14:51Z</time>
      </trkpt>
      <trkpt lat="43.94824" lon="5.23055">
        <ele>445.23</ele>
        <time>2019-04-29T11:15:08Z</time>
      </trkpt>
      <trkpt lat="43.94817" lon="5.23052">
        <ele>445.23</ele>
        <time>2019-04-29T11:15:13Z</time>
      </trkpt>
      <trkpt lat="43.94813" lon="5.23051">
        <ele>445.23</ele>
        <time>2019-04-29T11:15:16Z</time>
      </trkpt>
      <trkpt lat="43.94804" lon="5.2305">
        <ele>444.75</ele>
        <time>2019-04-29T11:15:23Z</time>
      </trkpt>
      <trkpt lat="43.948" lon="5.2305">
        <ele>444.27</ele>
        <time>2019-04-29T11:15:27Z</time>
      </trkpt>
      <trkpt lat="43.94784" lon="5.23038">
        <ele>445.23</ele>
        <time>2019-04-29T11:15:43Z</time>
      </trkpt>
      <trkpt lat="43.94768" lon="5.23012">
        <ele>442.34</ele>
        <time>2019-04-29T11:16:05Z</time>
      </trkpt>
      <trkpt lat="43.94752" lon="5.22991">
        <ele>442.34</ele>
        <time>2019-04-29T11:16:24Z</time>
      </trkpt>
      <trkpt lat="43.94744" lon="5.22984">
        <ele>442.34</ele>
        <time>2019-04-29T11:16:32Z</time>
      </trkpt>
      <trkpt lat="43.9473" lon="5.2296">
        <ele>442.34</ele>
        <time>2019-04-29T11:16:50Z</time>
      </trkpt>
      <trkpt lat="43.94722" lon="5.22941">
        <ele>442.82</ele>
        <time>2019-04-29T11:17:06Z</time>
      </trkpt>
      <trkpt lat="43.94711" lon="5.22908">
        <ele>442.34</ele>
        <time>2019-04-29T11:17:28Z</time>
      </trkpt>
      <trkpt lat="43.94702" lon="5.22884">
        <ele>441.38</ele>
        <time>2019-04-29T11:17:49Z</time>
      </trkpt>
      <trkpt lat="43.94684" lon="5.22859">
        <ele>440.9</ele>
        <time>2019-04-29T11:18:08Z</time>
      </trkpt>
      <trkpt lat="43.94671" lon="5.22838">
        <ele>441.38</ele>
        <time>2019-04-29T11:18:24Z</time>
      </trkpt>
      <trkpt lat="43.9466" lon="5.22811">
        <ele>441.38</ele>
        <time>2019-04-29T11:18:43Z</time>
      </trkpt>
      <trkpt lat="43.94648" lon="5.22792">
        <ele>440.42</ele>
        <time>2019-04-29T11:18:58Z</time>
      </trkpt>
      <trkpt lat="43.94636" lon="5.22778">
        <ele>441.86</ele>
        <time>2019-04-29T11:19:10Z</time>
      </trkpt>
      <trkpt lat="43.94622" lon="5.22761">
        <ele>442.34</ele>
        <time>2019-04-29T11:19:24Z</time>
      </trkpt>
      <trkpt lat="43.94608" lon="5.22752">
        <ele>441.38</ele>
        <time>2019-04-29T11:19:37Z</time>
      </trkpt>
      <trkpt lat="43.94591" lon="5.22738">
        <ele>441.38</ele>
        <time>2019-04-29T11:19:57Z</time>
      </trkpt>
      <trkpt lat="43.9459" lon="5.22734">
        <ele>443.31</ele>
        <time>2019-04-29T11:20:25Z</time>
      </trkpt>
      <trkpt lat="43.94591" lon="5.22736">
        <ele>440.9</ele>
        <time>2019-04-29T11:20:55Z</time>
      </trkpt>
      <trkpt lat="43.94592" lon="5.22733">
        <ele>442.34</ele>
        <time>2019-04-29T11:21:23Z</time>
      </trkpt>
      <trkpt lat="43.94593" lon="5.22732">
        <ele>440.9</ele>
        <time>2019-04-29T11:22:07Z</time>
      </trkpt>
      <trkpt lat="43.94589" lon="5.22727">
        <ele>441.86</ele>
        <time>2019-04-29T11:22:30Z</time>
      </trkpt>
      <trkpt lat="43.94577" lon="5.22703">
        <ele>440.9</ele>
        <time>2019-04-29T11:22:55Z</time>
      </trkpt>
      <trkpt lat="43.94567" lon="5.2268">
        <ele>440.9</ele>
        <time>2019-04-29T11:23:12Z</time>
      </trkpt>
      <trkpt lat="43.94555" lon="5.22661">
        <ele>440.9</ele>
        <time>2019-04-29T11:23:29Z</time>
      </trkpt>
      <trkpt lat="43.94548" lon="5.22641">
        <ele>441.86</ele>
        <time>2019-04-29T11:23:44Z</time>
      </trkpt>
      <trkpt lat="43.94548" lon="5.2264">
        <ele>441.86</ele>
        <time>2019-04-29T11:23:45Z</time>
      </trkpt>
      <trkpt lat="43.94538" lon="5.22616">
        <ele>441.86</ele>
        <time>2019-04-29T11:24:02Z</time>
      </trkpt>
      <trkpt lat="43.94523" lon="5.22592">
        <ele>440.42</ele>
        <time>2019-04-29T11:24:23Z</time>
      </trkpt>
      <trkpt lat="43.94508" lon="5.22573">
        <ele>439.94</ele>
        <time>2019-04-29T11:24:43Z</time>
      </trkpt>
      <trkpt lat="43.945" lon="5.22554">
        <ele>438.5</ele>
        <time>2019-04-29T11:25:00Z</time>
      </trkpt>
      <trkpt lat="43.94496" lon="5.22544">
        <ele>438.02</ele>
        <time>2019-04-29T11:25:08Z</time>
      </trkpt>
      <trkpt lat="43.9449" lon="5.22526">
        <ele>435.61</ele>
        <time>2019-04-29T11:25:25Z</time>
      </trkpt>
      <trkpt lat="43.94492" lon="5.22513">
        <ele>435.13</ele>
        <time>2019-04-29T11:25:38Z</time>
      </trkpt>
      <trkpt lat="43.94491" lon="5.22508">
        <ele>434.17</ele>
        <time>2019-04-29T11:25:46Z</time>
      </trkpt>
      <trkpt lat="43.94493" lon="5.22504">
        <ele>433.21</ele>
        <time>2019-04-29T11:26:00Z</time>
      </trkpt>
      <trkpt lat="43.945" lon="5.22514">
        <ele>430.81</ele>
        <time>2019-04-29T11:26:17Z</time>
      </trkpt>
      <trkpt lat="43.94503" lon="5.22503">
        <ele>428.4</ele>
        <time>2019-04-29T11:26:37Z</time>
      </trkpt>
      <trkpt lat="43.94504" lon="5.22498">
        <ele>427.92</ele>
        <time>2019-04-29T11:27:01Z</time>
      </trkpt>
      <trkpt lat="43.94507" lon="5.22495">
        <ele>426.96</ele>
        <time>2019-04-29T11:27:24Z</time>
      </trkpt>
      <trkpt lat="43.94503" lon="5.22497">
        <ele>427.92</ele>
        <time>2019-04-29T11:27:44Z</time>
      </trkpt>
      <trkpt lat="43.94501" lon="5.22497">
        <ele>426.96</ele>
        <time>2019-04-29T11:28:20Z</time>
      </trkpt>
      <trkpt lat="43.94501" lon="5.22497">
        <ele>428.4</ele>
        <time>2019-04-29T11:28:47Z</time>
      </trkpt>
      <trkpt lat="43.94502" lon="5.22498">
        <ele>428.4</ele>
        <time>2019-04-29T11:29:17Z</time>
      </trkpt>
      <trkpt lat="43.945" lon="5.225">
        <ele>428.4</ele>
        <time>2019-04-29T11:29:42Z</time>
      </trkpt>
      <trkpt lat="43.94501" lon="5.22499">
        <ele>428.4</ele>
        <time>2019-04-29T11:30:09Z</time>
      </trkpt>
      <trkpt lat="43.94502" lon="5.22496">
        <ele>428.4</ele>
        <time>2019-04-29T11:30:39Z</time>
      </trkpt>
      <trkpt lat="43.945" lon="5.225">
        <ele>428.4</ele>
        <time>2019-04-29T11:31:12Z</time>
      </trkpt>
      <trkpt lat="43.94499" lon="5.225">
        <ele>428.4</ele>
        <time>2019-04-29T11:31:42Z</time>
      </trkpt>
      <trkpt lat="43.94501" lon="5.22499">
        <ele>428.4</ele>
        <time>2019-04-29T11:32:14Z</time>
      </trkpt>
      <trkpt lat="43.94492" lon="5.2248">
        <ele>428.4</ele>
        <time>2019-04-29T11:32:40Z</time>
      </trkpt>
      <trkpt lat="43.94489" lon="5.22474">
        <ele>426</ele>
        <time>2019-04-29T11:32:47Z</time>
      </trkpt>
      <trkpt lat="43.94483" lon="5.22466">
        <ele>425.52</ele>
        <time>2019-04-29T11:32:54Z</time>
      </trkpt>
      <trkpt lat="43.94465" lon="5.22462">
        <ele>425.04</ele>
        <time>2019-04-29T11:33:13Z</time>
      </trkpt>
      <trkpt lat="43.94447" lon="5.22439">
        <ele>423.6</ele>
        <time>2019-04-29T11:33:34Z</time>
      </trkpt>
      <trkpt lat="43.94444" lon="5.2243">
        <ele>424.56</ele>
        <time>2019-04-29T11:33:42Z</time>
      </trkpt>
      <trkpt lat="43.94428" lon="5.22426">
        <ele>423.6</ele>
        <time>2019-04-29T11:33:55Z</time>
      </trkpt>
      <trkpt lat="43.94418" lon="5.22425">
        <ele>423.6</ele>
        <time>2019-04-29T11:34:07Z</time>
      </trkpt>
      <trkpt lat="43.94398" lon="5.22413">
        <ele>424.08</ele>
        <time>2019-04-29T11:34:24Z</time>
      </trkpt>
      <trkpt lat="43.94382" lon="5.22412">
        <ele>423.6</ele>
        <time>2019-04-29T11:34:39Z</time>
      </trkpt>
      <trkpt lat="43.94377" lon="5.22414">
        <ele>423.12</ele>
        <time>2019-04-29T11:34:44Z</time>
      </trkpt>
      <trkpt lat="43.94352" lon="5.22427">
        <ele>423.12</ele>
        <time>2019-04-29T11:35:04Z</time>
      </trkpt>
      <trkpt lat="43.94348" lon="5.22428">
        <ele>423.12</ele>
        <time>2019-04-29T11:35:07Z</time>
      </trkpt>
      <trkpt lat="43.94329" lon="5.22429">
        <ele>422.64</ele>
        <time>2019-04-29T11:35:24Z</time>
      </trkpt>
      <trkpt lat="43.94303" lon="5.22419">
        <ele>422.64</ele>
        <time>2019-04-29T11:35:44Z</time>
      </trkpt>
      <trkpt lat="43.94284" lon="5.22416">
        <ele>421.19</ele>
        <time>2019-04-29T11:36:02Z</time>
      </trkpt>
      <trkpt lat="43.94276" lon="5.22406">
        <ele>422.64</ele>
        <time>2019-04-29T11:36:15Z</time>
      </trkpt>
      <trkpt lat="43.94263" lon="5.22393">
        <ele>421.68</ele>
        <time>2019-04-29T11:36:34Z</time>
      </trkpt>
      <trkpt lat="43.94263" lon="5.22393">
        <ele>421.19</ele>
        <time>2019-04-29T11:36:59Z</time>
      </trkpt>
      <trkpt lat="43.94261" lon="5.22396">
        <ele>421.68</ele>
        <time>2019-04-29T11:37:29Z</time>
      </trkpt>
      <trkpt lat="43.94261" lon="5.22399">
        <ele>421.19</ele>
        <time>2019-04-29T11:37:57Z</time>
      </trkpt>
      <trkpt lat="43.94263" lon="5.22395">
        <ele>421.19</ele>
        <time>2019-04-29T11:38:19Z</time>
      </trkpt>
      <trkpt lat="43.94267" lon="5.22402">
        <ele>421.19</ele>
        <time>2019-04-29T11:38:32Z</time>
      </trkpt>
      <trkpt lat="43.94267" lon="5.22418">
        <ele>420.71</ele>
        <time>2019-04-29T11:38:41Z</time>
      </trkpt>
      <trkpt lat="43.94274" lon="5.22443">
        <ele>421.68</ele>
        <time>2019-04-29T11:38:58Z</time>
      </trkpt>
      <trkpt lat="43.9428" lon="5.22429">
        <ele>421.68</ele>
        <time>2019-04-29T11:39:12Z</time>
      </trkpt>
      <trkpt lat="43.94286" lon="5.22423">
        <ele>422.16</ele>
        <time>2019-04-29T11:39:17Z</time>
      </trkpt>
      <trkpt lat="43.94288" lon="5.22422">
        <ele>422.64</ele>
        <time>2019-04-29T11:39:42Z</time>
      </trkpt>
      <trkpt lat="43.94297" lon="5.22435">
        <ele>422.64</ele>
        <time>2019-04-29T11:39:54Z</time>
      </trkpt>
      <trkpt lat="43.94315" lon="5.2244">
        <ele>423.12</ele>
        <time>2019-04-29T11:40:12Z</time>
      </trkpt>
      <trkpt lat="43.94332" lon="5.22438">
        <ele>424.08</ele>
        <time>2019-04-29T11:40:27Z</time>
      </trkpt>
      <trkpt lat="43.94336" lon="5.22436">
        <ele>424.08</ele>
        <time>2019-04-29T11:40:30Z</time>
      </trkpt>
      <trkpt lat="43.94361" lon="5.22425">
        <ele>424.08</ele>
        <time>2019-04-29T11:40:49Z</time>
      </trkpt>
      <trkpt lat="43.9438" lon="5.22417">
        <ele>424.08</ele>
        <time>2019-04-29T11:41:08Z</time>
      </trkpt>
      <trkpt lat="43.94396" lon="5.22413">
        <ele>424.08</ele>
        <time>2019-04-29T11:41:26Z</time>
      </trkpt>
      <trkpt lat="43.94413" lon="5.2242">
        <ele>425.04</ele>
        <time>2019-04-29T11:41:41Z</time>
      </trkpt>
      <trkpt lat="43.94419" lon="5.22424">
        <ele>425.04</ele>
        <time>2019-04-29T11:41:47Z</time>
      </trkpt>
      <trkpt lat="43.94436" lon="5.22429">
        <ele>425.04</ele>
        <time>2019-04-29T11:42:03Z</time>
      </trkpt>
      <trkpt lat="43.94448" lon="5.22438">
        <ele>424.08</ele>
        <time>2019-04-29T11:42:17Z</time>
      </trkpt>
      <trkpt lat="43.94465" lon="5.22459">
        <ele>425.52</ele>
        <time>2019-04-29T11:42:35Z</time>
      </trkpt>
      <trkpt lat="43.94482" lon="5.22469">
        <ele>425.52</ele>
        <time>2019-04-29T11:42:52Z</time>
      </trkpt>
      <trkpt lat="43.94489" lon="5.22483">
        <ele>426.96</ele>
        <time>2019-04-29T11:43:10Z</time>
      </trkpt>
      <trkpt lat="43.94502" lon="5.225">
        <ele>429.37</ele>
        <time>2019-04-29T11:43:30Z</time>
      </trkpt>
      <trkpt lat="43.94499" lon="5.22511">
        <ele>431.77</ele>
        <time>2019-04-29T11:43:48Z</time>
      </trkpt>
      <trkpt lat="43.94489" lon="5.22502">
        <ele>434.65</ele>
        <time>2019-04-29T11:44:06Z</time>
      </trkpt>
      <trkpt lat="43.9449" lon="5.22509">
        <ele>437.06</ele>
        <time>2019-04-29T11:44:23Z</time>
      </trkpt>
      <trkpt lat="43.94486" lon="5.2251">
        <ele>438.5</ele>
        <time>2019-04-29T11:44:46Z</time>
      </trkpt>
      <trkpt lat="43.94485" lon="5.22521">
        <ele>439.94</ele>
        <time>2019-04-29T11:45:04Z</time>
      </trkpt>
      <trkpt lat="43.94487" lon="5.22529">
        <ele>439.46</ele>
        <time>2019-04-29T11:45:12Z</time>
      </trkpt>
      <trkpt lat="43.94494" lon="5.22541">
        <ele>439.46</ele>
        <time>2019-04-29T11:45:28Z</time>
      </trkpt>
      <trkpt lat="43.94502" lon="5.2256">
        <ele>440.9</ele>
        <time>2019-04-29T11:45:45Z</time>
      </trkpt>
      <trkpt lat="43.94509" lon="5.22575">
        <ele>441.38</ele>
        <time>2019-04-29T11:46:03Z</time>
      </trkpt>
      <trkpt lat="43.9452" lon="5.22592">
        <ele>442.82</ele>
        <time>2019-04-29T11:46:24Z</time>
      </trkpt>
      <trkpt lat="43.94532" lon="5.22611">
        <ele>443.31</ele>
        <time>2019-04-29T11:46:45Z</time>
      </trkpt>
      <trkpt lat="43.94539" lon="5.22628">
        <ele>443.31</ele>
        <time>2019-04-29T11:46:59Z</time>
      </trkpt>
      <trkpt lat="43.94541" lon="5.22632">
        <ele>443.31</ele>
        <time>2019-04-29T11:47:03Z</time>
      </trkpt>
      <trkpt lat="43.9455" lon="5.22649">
        <ele>443.79</ele>
        <time>2019-04-29T11:47:19Z</time>
      </trkpt>
      <trkpt lat="43.94558" lon="5.22664">
        <ele>444.27</ele>
        <time>2019-04-29T11:47:33Z</time>
      </trkpt>
      <trkpt lat="43.94568" lon="5.22682">
        <ele>443.79</ele>
        <time>2019-04-29T11:47:51Z</time>
      </trkpt>
      <trkpt lat="43.94577" lon="5.22703">
        <ele>442.82</ele>
        <time>2019-04-29T11:48:08Z</time>
      </trkpt>
      <trkpt lat="43.94587" lon="5.22728">
        <ele>443.79</ele>
        <time>2019-04-29T11:48:28Z</time>
      </trkpt>
      <trkpt lat="43.94586" lon="5.22733">
        <ele>444.27</ele>
        <time>2019-04-29T11:48:49Z</time>
      </trkpt>
      <trkpt lat="43.94587" lon="5.22737">
        <ele>445.23</ele>
        <time>2019-04-29T11:49:14Z</time>
      </trkpt>
      <trkpt lat="43.94586" lon="5.22734">
        <ele>444.27</ele>
        <time>2019-04-29T11:49:39Z</time>
      </trkpt>
      <trkpt lat="43.94583" lon="5.22729">
        <ele>444.27</ele>
        <time>2019-04-29T11:50:07Z</time>
      </trkpt>
      <trkpt lat="43.94575" lon="5.22727">
        <ele>444.27</ele>
        <time>2019-04-29T11:50:32Z</time>
      </trkpt>
      <trkpt lat="43.94572" lon="5.22723">
        <ele>444.27</ele>
        <time>2019-04-29T11:50:35Z</time>
      </trkpt>
      <trkpt lat="43.94567" lon="5.22718">
        <ele>446.67</ele>
        <time>2019-04-29T11:50:41Z</time>
      </trkpt>
      <trkpt lat="43.94562" lon="5.22715">
        <ele>447.63</ele>
        <time>2019-04-29T11:50:49Z</time>
      </trkpt>
      <trkpt lat="43.94555" lon="5.22708">
        <ele>448.11</ele>
        <time>2019-04-29T11:50:58Z</time>
      </trkpt>
      <trkpt lat="43.94544" lon="5.22691">
        <ele>449.55</ele>
        <time>2019-04-29T11:51:14Z</time>
      </trkpt>
      <trkpt lat="43.94531" lon="5.22673">
        <ele>451</ele>
        <time>2019-04-29T11:51:30Z</time>
      </trkpt>
      <trkpt lat="43.9452" lon="5.22656">
        <ele>452.92</ele>
        <time>2019-04-29T11:51:45Z</time>
      </trkpt>
      <trkpt lat="43.94511" lon="5.22639">
        <ele>454.36</ele>
        <time>2019-04-29T11:51:58Z</time>
      </trkpt>
      <trkpt lat="43.94494" lon="5.22624">
        <ele>456.76</ele>
        <time>2019-04-29T11:52:16Z</time>
      </trkpt>
      <trkpt lat="43.94477" lon="5.2261">
        <ele>456.28</ele>
        <time>2019-04-29T11:52:33Z</time>
      </trkpt>
      <trkpt lat="43.94463" lon="5.22597">
        <ele>458.21</ele>
        <time>2019-04-29T11:52:49Z</time>
      </trkpt>
      <trkpt lat="43.94452" lon="5.22588">
        <ele>456.76</ele>
        <time>2019-04-29T11:53:01Z</time>
      </trkpt>
      <trkpt lat="43.94443" lon="5.2258">
        <ele>459.17</ele>
        <time>2019-04-29T11:53:10Z</time>
      </trkpt>
      <trkpt lat="43.94428" lon="5.22567">
        <ele>460.61</ele>
        <time>2019-04-29T11:53:26Z</time>
      </trkpt>
      <trkpt lat="43.94412" lon="5.22556">
        <ele>463.01</ele>
        <time>2019-04-29T11:53:43Z</time>
      </trkpt>
      <trkpt lat="43.94395" lon="5.22547">
        <ele>463.01</ele>
        <time>2019-04-29T11:53:57Z</time>
      </trkpt>
      <trkpt lat="43.94388" lon="5.22544">
        <ele>463.49</ele>
        <time>2019-04-29T11:54:04Z</time>
      </trkpt>
      <trkpt lat="43.94377" lon="5.22538">
        <ele>462.53</ele>
        <time>2019-04-29T11:54:20Z</time>
      </trkpt>
      <trkpt lat="43.94373" lon="5.22544">
        <ele>464.45</ele>
        <time>2019-04-29T11:54:27Z</time>
      </trkpt>
      <trkpt lat="43.94369" lon="5.22536">
        <ele>463.01</ele>
        <time>2019-04-29T11:54:43Z</time>
      </trkpt>
      <trkpt lat="43.9437" lon="5.22531">
        <ele>463.97</ele>
        <time>2019-04-29T11:54:51Z</time>
      </trkpt>
      <trkpt lat="43.94363" lon="5.22527">
        <ele>460.61</ele>
        <time>2019-04-29T11:55:02Z</time>
      </trkpt>
      <trkpt lat="43.9435" lon="5.22533">
        <ele>461.57</ele>
        <time>2019-04-29T11:55:17Z</time>
      </trkpt>
      <trkpt lat="43.94336" lon="5.22533">
        <ele>462.05</ele>
        <time>2019-04-29T11:55:31Z</time>
      </trkpt>
      <trkpt lat="43.94318" lon="5.22538">
        <ele>461.57</ele>
        <time>2019-04-29T11:55:49Z</time>
      </trkpt>
      <trkpt lat="43.94306" lon="5.22539">
        <ele>460.61</ele>
        <time>2019-04-29T11:56:04Z</time>
      </trkpt>
      <trkpt lat="43.94303" lon="5.2254">
        <ele>460.61</ele>
        <time>2019-04-29T11:56:07Z</time>
      </trkpt>
      <trkpt lat="43.94282" lon="5.22549">
        <ele>460.13</ele>
        <time>2019-04-29T11:56:26Z</time>
      </trkpt>
      <trkpt lat="43.94261" lon="5.2256">
        <ele>459.65</ele>
        <time>2019-04-29T11:56:45Z</time>
      </trkpt>
      <trkpt lat="43.94246" lon="5.2257">
        <ele>458.69</ele>
        <time>2019-04-29T11:57:02Z</time>
      </trkpt>
      <trkpt lat="43.94236" lon="5.22585">
        <ele>460.13</ele>
        <time>2019-04-29T11:57:20Z</time>
      </trkpt>
      <trkpt lat="43.9423" lon="5.22596">
        <ele>462.53</ele>
        <time>2019-04-29T11:57:45Z</time>
      </trkpt>
      <trkpt lat="43.94221" lon="5.22593">
        <ele>461.57</ele>
        <time>2019-04-29T11:57:53Z</time>
      </trkpt>
      <trkpt lat="43.94208" lon="5.22579">
        <ele>463.97</ele>
        <time>2019-04-29T11:58:10Z</time>
      </trkpt>
      <trkpt lat="43.942" lon="5.22564">
        <ele>466.86</ele>
        <time>2019-04-29T11:58:27Z</time>
      </trkpt>
      <trkpt lat="43.94189" lon="5.22546">
        <ele>469.26</ele>
        <time>2019-04-29T11:58:46Z</time>
      </trkpt>
      <trkpt lat="43.94184" lon="5.22538">
        <ele>472.14</ele>
        <time>2019-04-29T11:58:55Z</time>
      </trkpt>
      <trkpt lat="43.94172" lon="5.22524">
        <ele>472.63</ele>
        <time>2019-04-29T11:59:12Z</time>
      </trkpt>
      <trkpt lat="43.94162" lon="5.22511">
        <ele>474.07</ele>
        <time>2019-04-29T11:59:30Z</time>
      </trkpt>
      <trkpt lat="43.9416" lon="5.22509">
        <ele>473.59</ele>
        <time>2019-04-29T11:59:33Z</time>
      </trkpt>
      <trkpt lat="43.94145" lon="5.22506">
        <ele>474.07</ele>
        <time>2019-04-29T11:59:51Z</time>
      </trkpt>
      <trkpt lat="43.94132" lon="5.22509">
        <ele>477.43</ele>
        <time>2019-04-29T12:00:07Z</time>
      </trkpt>
      <trkpt lat="43.94124" lon="5.2251">
        <ele>480.32</ele>
        <time>2019-04-29T12:00:21Z</time>
      </trkpt>
      <trkpt lat="43.94115" lon="5.22512">
        <ele>483.2</ele>
        <time>2019-04-29T12:00:34Z</time>
      </trkpt>
      <trkpt lat="43.94102" lon="5.22514">
        <ele>486.56</ele>
        <time>2019-04-29T12:00:52Z</time>
      </trkpt>
      <trkpt lat="43.94095" lon="5.22517">
        <ele>488.97</ele>
        <time>2019-04-29T12:01:01Z</time>
      </trkpt>
      <trkpt lat="43.94077" lon="5.2252">
        <ele>492.33</ele>
        <time>2019-04-29T12:01:22Z</time>
      </trkpt>
      <trkpt lat="43.94065" lon="5.22525">
        <ele>495.22</ele>
        <time>2019-04-29T12:01:44Z</time>
      </trkpt>
      <trkpt lat="43.94055" lon="5.2253">
        <ele>498.58</ele>
        <time>2019-04-29T12:02:01Z</time>
      </trkpt>
      <trkpt lat="43.9404" lon="5.22532">
        <ele>500.98</ele>
        <time>2019-04-29T12:02:20Z</time>
      </trkpt>
      <trkpt lat="43.94029" lon="5.22538">
        <ele>503.87</ele>
        <time>2019-04-29T12:02:36Z</time>
      </trkpt>
      <trkpt lat="43.9401" lon="5.22543">
        <ele>506.27</ele>
        <time>2019-04-29T12:02:58Z</time>
      </trkpt>
      <trkpt lat="43.94009" lon="5.22542">
        <ele>504.83</ele>
        <time>2019-04-29T12:03:22Z</time>
      </trkpt>
      <trkpt lat="43.94009" lon="5.22541">
        <ele>504.83</ele>
        <time>2019-04-29T12:03:54Z</time>
      </trkpt>
      <trkpt lat="43.94008" lon="5.22543">
        <ele>505.31</ele>
        <time>2019-04-29T12:04:33Z</time>
      </trkpt>
      <trkpt lat="43.94008" lon="5.22543">
        <ele>505.31</ele>
        <time>2019-04-29T12:05:52Z</time>
      </trkpt>
      <trkpt lat="43.94009" lon="5.22544">
        <ele>505.31</ele>
        <time>2019-04-29T12:06:23Z</time>
      </trkpt>
      <trkpt lat="43.94005" lon="5.22547">
        <ele>505.31</ele>
        <time>2019-04-29T12:06:43Z</time>
      </trkpt>
      <trkpt lat="43.93993" lon="5.22557">
        <ele>505.31</ele>
        <time>2019-04-29T12:06:58Z</time>
      </trkpt>
      <trkpt lat="43.93984" lon="5.22573">
        <ele>505.79</ele>
        <time>2019-04-29T12:07:15Z</time>
      </trkpt>
      <trkpt lat="43.93968" lon="5.22591">
        <ele>506.75</ele>
        <time>2019-04-29T12:07:35Z</time>
      </trkpt>
      <trkpt lat="43.93953" lon="5.22605">
        <ele>507.23</ele>
        <time>2019-04-29T12:07:52Z</time>
      </trkpt>
      <trkpt lat="43.93934" lon="5.22618">
        <ele>508.19</ele>
        <time>2019-04-29T12:08:10Z</time>
      </trkpt>
      <trkpt lat="43.93931" lon="5.22618">
        <ele>508.19</ele>
        <time>2019-04-29T12:08:12Z</time>
      </trkpt>
      <trkpt lat="43.93906" lon="5.22619">
        <ele>507.71</ele>
        <time>2019-04-29T12:08:30Z</time>
      </trkpt>
      <trkpt lat="43.93891" lon="5.22624">
        <ele>507.71</ele>
        <time>2019-04-29T12:08:46Z</time>
      </trkpt>
      <trkpt lat="43.93882" lon="5.22622">
        <ele>508.67</ele>
        <time>2019-04-29T12:08:56Z</time>
      </trkpt>
      <trkpt lat="43.93866" lon="5.22606">
        <ele>507.23</ele>
        <time>2019-04-29T12:09:14Z</time>
      </trkpt>
      <trkpt lat="43.93848" lon="5.22587">
        <ele>505.31</ele>
        <time>2019-04-29T12:09:33Z</time>
      </trkpt>
      <trkpt lat="43.93833" lon="5.22574">
        <ele>505.79</ele>
        <time>2019-04-29T12:09:48Z</time>
      </trkpt>
      <trkpt lat="43.93815" lon="5.2256">
        <ele>505.79</ele>
        <time>2019-04-29T12:10:05Z</time>
      </trkpt>
      <trkpt lat="43.93798" lon="5.22553">
        <ele>503.87</ele>
        <time>2019-04-29T12:10:21Z</time>
      </trkpt>
      <trkpt lat="43.93775" lon="5.2255">
        <ele>503.39</ele>
        <time>2019-04-29T12:10:40Z</time>
      </trkpt>
      <trkpt lat="43.93758" lon="5.2255">
        <ele>500.98</ele>
        <time>2019-04-29T12:10:55Z</time>
      </trkpt>
      <trkpt lat="43.93737" lon="5.22547">
        <ele>497.62</ele>
        <time>2019-04-29T12:11:13Z</time>
      </trkpt>
      <trkpt lat="43.93712" lon="5.22548">
        <ele>497.14</ele>
        <time>2019-04-29T12:11:34Z</time>
      </trkpt>
      <trkpt lat="43.93688" lon="5.22556">
        <ele>494.26</ele>
        <time>2019-04-29T12:11:54Z</time>
      </trkpt>
      <trkpt lat="43.93677" lon="5.22562">
        <ele>493.77</ele>
        <time>2019-04-29T12:12:07Z</time>
      </trkpt>
      <trkpt lat="43.93673" lon="5.22563">
        <ele>493.29</ele>
        <time>2019-04-29T12:12:10Z</time>
      </trkpt>
      <trkpt lat="43.93654" lon="5.22573">
        <ele>491.37</ele>
        <time>2019-04-29T12:12:30Z</time>
      </trkpt>
      <trkpt lat="43.9363" lon="5.22583">
        <ele>489.45</ele>
        <time>2019-04-29T12:12:51Z</time>
      </trkpt>
      <trkpt lat="43.93617" lon="5.22591">
        <ele>489.45</ele>
        <time>2019-04-29T12:13:10Z</time>
      </trkpt>
      <trkpt lat="43.93618" lon="5.22593">
        <ele>491.37</ele>
        <time>2019-04-29T12:13:54Z</time>
      </trkpt>
      <trkpt lat="43.93616" lon="5.22594">
        <ele>489.93</ele>
        <time>2019-04-29T12:14:17Z</time>
      </trkpt>
      <trkpt lat="43.93616" lon="5.22591">
        <ele>489.93</ele>
        <time>2019-04-29T12:14:40Z</time>
      </trkpt>
      <trkpt lat="43.93614" lon="5.22592">
        <ele>489.93</ele>
        <time>2019-04-29T12:15:03Z</time>
      </trkpt>
      <trkpt lat="43.93602" lon="5.22619">
        <ele>487.53</ele>
        <time>2019-04-29T12:15:23Z</time>
      </trkpt>
      <trkpt lat="43.93591" lon="5.22646">
        <ele>484.64</ele>
        <time>2019-04-29T12:15:43Z</time>
      </trkpt>
      <trkpt lat="43.93587" lon="5.2267">
        <ele>483.68</ele>
        <time>2019-04-29T12:16:00Z</time>
      </trkpt>
      <trkpt lat="43.93581" lon="5.22694">
        <ele>481.76</ele>
        <time>2019-04-29T12:16:18Z</time>
      </trkpt>
      <trkpt lat="43.93573" lon="5.22723">
        <ele>479.84</ele>
        <time>2019-04-29T12:16:39Z</time>
      </trkpt>
      <trkpt lat="43.93564" lon="5.22743">
        <ele>477.43</ele>
        <time>2019-04-29T12:16:56Z</time>
      </trkpt>
      <trkpt lat="43.93549" lon="5.2276">
        <ele>475.51</ele>
        <time>2019-04-29T12:17:15Z</time>
      </trkpt>
      <trkpt lat="43.93529" lon="5.22772">
        <ele>474.55</ele>
        <time>2019-04-29T12:17:35Z</time>
      </trkpt>
      <trkpt lat="43.93503" lon="5.22782">
        <ele>471.66</ele>
        <time>2019-04-29T12:17:58Z</time>
      </trkpt>
      <trkpt lat="43.93482" lon="5.22789">
        <ele>469.74</ele>
        <time>2019-04-29T12:18:17Z</time>
      </trkpt>
      <trkpt lat="43.93463" lon="5.22795">
        <ele>467.82</ele>
        <time>2019-04-29T12:18:35Z</time>
      </trkpt>
      <trkpt lat="43.93438" lon="5.22805">
        <ele>465.42</ele>
        <time>2019-04-29T12:18:57Z</time>
      </trkpt>
      <trkpt lat="43.93422" lon="5.22823">
        <ele>463.97</ele>
        <time>2019-04-29T12:19:15Z</time>
      </trkpt>
      <trkpt lat="43.93405" lon="5.22843">
        <ele>461.09</ele>
        <time>2019-04-29T12:19:35Z</time>
      </trkpt>
      <trkpt lat="43.93389" lon="5.22858">
        <ele>458.69</ele>
        <time>2019-04-29T12:19:53Z</time>
      </trkpt>
      <trkpt lat="43.93372" lon="5.22878">
        <ele>456.76</ele>
        <time>2019-04-29T12:20:12Z</time>
      </trkpt>
      <trkpt lat="43.93356" lon="5.22898">
        <ele>455.32</ele>
        <time>2019-04-29T12:20:32Z</time>
      </trkpt>
      <trkpt lat="43.9334" lon="5.22919">
        <ele>453.4</ele>
        <time>2019-04-29T12:20:51Z</time>
      </trkpt>
      <trkpt lat="43.93321" lon="5.22939">
        <ele>451</ele>
        <time>2019-04-29T12:21:12Z</time>
      </trkpt>
      <trkpt lat="43.93308" lon="5.22953">
        <ele>449.55</ele>
        <time>2019-04-29T12:21:30Z</time>
      </trkpt>
      <trkpt lat="43.93312" lon="5.22965">
        <ele>449.07</ele>
        <time>2019-04-29T12:21:48Z</time>
      </trkpt>
      <trkpt lat="43.93312" lon="5.22965">
        <ele>448.11</ele>
        <time>2019-04-29T12:22:18Z</time>
      </trkpt>
      <trkpt lat="43.93312" lon="5.22965">
        <ele>448.59</ele>
        <time>2019-04-29T12:22:48Z</time>
      </trkpt>
      <trkpt lat="43.93312" lon="5.22968">
        <ele>448.59</ele>
        <time>2019-04-29T12:23:23Z</time>
      </trkpt>
      <trkpt lat="43.93314" lon="5.22985">
        <ele>447.63</ele>
        <time>2019-04-29T12:23:36Z</time>
      </trkpt>
      <trkpt lat="43.93312" lon="5.23003">
        <ele>446.19</ele>
        <time>2019-04-29T12:23:53Z</time>
      </trkpt>
      <trkpt lat="43.93298" lon="5.23007">
        <ele>444.27</ele>
        <time>2019-04-29T12:24:14Z</time>
      </trkpt>
      <trkpt lat="43.93291" lon="5.23007">
        <ele>444.27</ele>
        <time>2019-04-29T12:24:46Z</time>
      </trkpt>
      <trkpt lat="43.93273" lon="5.23008">
        <ele>442.34</ele>
        <time>2019-04-29T12:25:04Z</time>
      </trkpt>
      <trkpt lat="43.93259" lon="5.23007">
        <ele>440.9</ele>
        <time>2019-04-29T12:25:20Z</time>
      </trkpt>
      <trkpt lat="43.93244" lon="5.23006">
        <ele>439.94</ele>
        <time>2019-04-29T12:25:35Z</time>
      </trkpt>
      <trkpt lat="43.93228" lon="5.23009">
        <ele>438.5</ele>
        <time>2019-04-29T12:25:50Z</time>
      </trkpt>
      <trkpt lat="43.93218" lon="5.23008">
        <ele>437.54</ele>
        <time>2019-04-29T12:25:59Z</time>
      </trkpt>
      <trkpt lat="43.93203" lon="5.23016">
        <ele>435.13</ele>
        <time>2019-04-29T12:26:16Z</time>
      </trkpt>
      <trkpt lat="43.93189" lon="5.23022">
        <ele>433.21</ele>
        <time>2019-04-29T12:26:32Z</time>
      </trkpt>
      <trkpt lat="43.93174" lon="5.23031">
        <ele>430.81</ele>
        <time>2019-04-29T12:26:48Z</time>
      </trkpt>
      <trkpt lat="43.93157" lon="5.2304">
        <ele>427.92</ele>
        <time>2019-04-29T12:27:09Z</time>
      </trkpt>
      <trkpt lat="43.93145" lon="5.2305">
        <ele>426</ele>
        <time>2019-04-29T12:27:24Z</time>
      </trkpt>
      <trkpt lat="43.93136" lon="5.23059">
        <ele>424.56</ele>
        <time>2019-04-29T12:27:40Z</time>
      </trkpt>
      <trkpt lat="43.93135" lon="5.23081">
        <ele>423.6</ele>
        <time>2019-04-29T12:27:59Z</time>
      </trkpt>
      <trkpt lat="43.93136" lon="5.23086">
        <ele>423.6</ele>
        <time>2019-04-29T12:28:21Z</time>
      </trkpt>
      <trkpt lat="43.93136" lon="5.23092">
        <ele>424.56</ele>
        <time>2019-04-29T12:28:58Z</time>
      </trkpt>
      <trkpt lat="43.93138" lon="5.23105">
        <ele>422.64</ele>
        <time>2019-04-29T12:29:12Z</time>
      </trkpt>
      <trkpt lat="43.93141" lon="5.23114">
        <ele>422.64</ele>
        <time>2019-04-29T12:29:22Z</time>
      </trkpt>
      <trkpt lat="43.93149" lon="5.23131">
        <ele>422.16</ele>
        <time>2019-04-29T12:29:37Z</time>
      </trkpt>
      <trkpt lat="43.93154" lon="5.23153">
        <ele>421.19</ele>
        <time>2019-04-29T12:29:54Z</time>
      </trkpt>
      <trkpt lat="43.93155" lon="5.23172">
        <ele>418.31</ele>
        <time>2019-04-29T12:30:11Z</time>
      </trkpt>
      <trkpt lat="43.93153" lon="5.23187">
        <ele>415.91</ele>
        <time>2019-04-29T12:30:25Z</time>
      </trkpt>
      <trkpt lat="43.93141" lon="5.23206">
        <ele>413.5</ele>
        <time>2019-04-29T12:30:43Z</time>
      </trkpt>
      <trkpt lat="43.9314" lon="5.23231">
        <ele>410.62</ele>
        <time>2019-04-29T12:31:01Z</time>
      </trkpt>
      <trkpt lat="43.93142" lon="5.23239">
        <ele>409.66</ele>
        <time>2019-04-29T12:31:08Z</time>
      </trkpt>
      <trkpt lat="43.9315" lon="5.23262">
        <ele>407.26</ele>
        <time>2019-04-29T12:31:26Z</time>
      </trkpt>
      <trkpt lat="43.93147" lon="5.23273">
        <ele>404.37</ele>
        <time>2019-04-29T12:31:35Z</time>
      </trkpt>
      <trkpt lat="43.93138" lon="5.2329">
        <ele>403.89</ele>
        <time>2019-04-29T12:31:51Z</time>
      </trkpt>
      <trkpt lat="43.93134" lon="5.23292">
        <ele>403.41</ele>
        <time>2019-04-29T12:31:54Z</time>
      </trkpt>
      <trkpt lat="43.93117" lon="5.23305">
        <ele>401.01</ele>
        <time>2019-04-29T12:32:11Z</time>
      </trkpt>
      <trkpt lat="43.93103" lon="5.23321">
        <ele>397.64</ele>
        <time>2019-04-29T12:32:29Z</time>
      </trkpt>
      <trkpt lat="43.93091" lon="5.23338">
        <ele>396.2</ele>
        <time>2019-04-29T12:32:49Z</time>
      </trkpt>
      <trkpt lat="43.9308" lon="5.23357">
        <ele>393.32</ele>
        <time>2019-04-29T12:33:04Z</time>
      </trkpt>
      <trkpt lat="43.93067" lon="5.23379">
        <ele>391.87</ele>
        <time>2019-04-29T12:33:24Z</time>
      </trkpt>
      <trkpt lat="43.93055" lon="5.23399">
        <ele>389.95</ele>
        <time>2019-04-29T12:33:42Z</time>
      </trkpt>
      <trkpt lat="43.93044" lon="5.2342">
        <ele>388.03</ele>
        <time>2019-04-29T12:34:00Z</time>
      </trkpt>
      <trkpt lat="43.9303" lon="5.23443">
        <ele>385.63</ele>
        <time>2019-04-29T12:34:19Z</time>
      </trkpt>
      <trkpt lat="43.93014" lon="5.2346">
        <ele>383.22</ele>
        <time>2019-04-29T12:34:39Z</time>
      </trkpt>
      <trkpt lat="43.93009" lon="5.23468">
        <ele>381.78</ele>
        <time>2019-04-29T12:34:47Z</time>
      </trkpt>
      <trkpt lat="43.92992" lon="5.23478">
        <ele>380.34</ele>
        <time>2019-04-29T12:35:05Z</time>
      </trkpt>
      <trkpt lat="43.9299" lon="5.23478">
        <ele>380.34</ele>
        <time>2019-04-29T12:35:07Z</time>
      </trkpt>
      <trkpt lat="43.92988" lon="5.2348">
        <ele>379.86</ele>
        <time>2019-04-29T12:35:09Z</time>
      </trkpt>
      <trkpt lat="43.92971" lon="5.23492">
        <ele>378.42</ele>
        <time>2019-04-29T12:35:27Z</time>
      </trkpt>
      <trkpt lat="43.92953" lon="5.23503">
        <ele>376.01</ele>
        <time>2019-04-29T12:35:46Z</time>
      </trkpt>
      <trkpt lat="43.92937" lon="5.23518">
        <ele>373.61</ele>
        <time>2019-04-29T12:36:05Z</time>
      </trkpt>
      <trkpt lat="43.92923" lon="5.23533">
        <ele>371.69</ele>
        <time>2019-04-29T12:36:23Z</time>
      </trkpt>
      <trkpt lat="43.92907" lon="5.23548">
        <ele>369.76</ele>
        <time>2019-04-29T12:36:40Z</time>
      </trkpt>
      <trkpt lat="43.92898" lon="5.23559">
        <ele>368.8</ele>
        <time>2019-04-29T12:36:53Z</time>
      </trkpt>
      <trkpt lat="43.9289" lon="5.23564">
        <ele>367.36</ele>
        <time>2019-04-29T12:37:01Z</time>
      </trkpt>
      <trkpt lat="43.92872" lon="5.23576">
        <ele>365.44</ele>
        <time>2019-04-29T12:37:18Z</time>
      </trkpt>
      <trkpt lat="43.92861" lon="5.23588">
        <ele>363.52</ele>
        <time>2019-04-29T12:37:33Z</time>
      </trkpt>
      <trkpt lat="43.92846" lon="5.23604">
        <ele>362.55</ele>
        <time>2019-04-29T12:37:51Z</time>
      </trkpt>
      <trkpt lat="43.92834" lon="5.23624">
        <ele>360.63</ele>
        <time>2019-04-29T12:38:08Z</time>
      </trkpt>
      <trkpt lat="43.92823" lon="5.23645">
        <ele>358.71</ele>
        <time>2019-04-29T12:38:25Z</time>
      </trkpt>
      <trkpt lat="43.92809" lon="5.23664">
        <ele>356.31</ele>
        <time>2019-04-29T12:38:44Z</time>
      </trkpt>
      <trkpt lat="43.92797" lon="5.23679">
        <ele>354.86</ele>
        <time>2019-04-29T12:39:00Z</time>
      </trkpt>
      <trkpt lat="43.92789" lon="5.23689">
        <ele>353.42</ele>
        <time>2019-04-29T12:39:16Z</time>
      </trkpt>
      <trkpt lat="43.92789" lon="5.23689">
        <ele>352.46</ele>
        <time>2019-04-29T12:39:50Z</time>
      </trkpt>
      <trkpt lat="43.92788" lon="5.23688">
        <ele>352.46</ele>
        <time>2019-04-29T12:40:15Z</time>
      </trkpt>
      <trkpt lat="43.92786" lon="5.23688">
        <ele>352.46</ele>
        <time>2019-04-29T12:41:05Z</time>
      </trkpt>
      <trkpt lat="43.92788" lon="5.23688">
        <ele>352.46</ele>
        <time>2019-04-29T12:42:34Z</time>
      </trkpt>
      <trkpt lat="43.92788" lon="5.23689">
        <ele>352.46</ele>
        <time>2019-04-29T12:42:55Z</time>
      </trkpt>
      <trkpt lat="43.92788" lon="5.2369">
        <ele>352.46</ele>
        <time>2019-04-29T12:43:22Z</time>
      </trkpt>
      <trkpt lat="43.92787" lon="5.2369">
        <ele>352.46</ele>
        <time>2019-04-29T12:44:00Z</time>
      </trkpt>
      <trkpt lat="43.92788" lon="5.2369">
        <ele>352.46</ele>
        <time>2019-04-29T12:44:29Z</time>
      </trkpt>
      <trkpt lat="43.92788" lon="5.23691">
        <ele>352.46</ele>
        <time>2019-04-29T12:45:10Z</time>
      </trkpt>
      <trkpt lat="43.92786" lon="5.2369">
        <ele>352.46</ele>
        <time>2019-04-29T12:45:35Z</time>
      </trkpt>
      <trkpt lat="43.92786" lon="5.23689">
        <ele>352.46</ele>
        <time>2019-04-29T12:46:09Z</time>
      </trkpt>
      <trkpt lat="43.92784" lon="5.23689">
        <ele>352.46</ele>
        <time>2019-04-29T12:46:40Z</time>
      </trkpt>
      <trkpt lat="43.92784" lon="5.2369">
        <ele>352.46</ele>
        <time>2019-04-29T12:47:18Z</time>
      </trkpt>
      <trkpt lat="43.92784" lon="5.2369">
        <ele>352.46</ele>
        <time>2019-04-29T12:47:55Z</time>
      </trkpt>
      <trkpt lat="43.92782" lon="5.23695">
        <ele>352.46</ele>
        <time>2019-04-29T12:48:05Z</time>
      </trkpt>
      <trkpt lat="43.92766" lon="5.237">
        <ele>351.5</ele>
        <time>2019-04-29T12:48:24Z</time>
      </trkpt>
      <trkpt lat="43.9276" lon="5.237">
        <ele>351.02</ele>
        <time>2019-04-29T12:48:30Z</time>
      </trkpt>
      <trkpt lat="43.92757" lon="5.23703">
        <ele>350.54</ele>
        <time>2019-04-29T12:48:33Z</time>
      </trkpt>
      <trkpt lat="43.92738" lon="5.23693">
        <ele>349.58</ele>
        <time>2019-04-29T12:48:52Z</time>
      </trkpt>
      <trkpt lat="43.92723" lon="5.23678">
        <ele>349.1</ele>
        <time>2019-04-29T12:49:10Z</time>
      </trkpt>
      <trkpt lat="43.92706" lon="5.23661">
        <ele>348.62</ele>
        <time>2019-04-29T12:49:29Z</time>
      </trkpt>
      <trkpt lat="43.92689" lon="5.23651">
        <ele>347.65</ele>
        <time>2019-04-29T12:49:45Z</time>
      </trkpt>
      <trkpt lat="43.92671" lon="5.23641">
        <ele>347.65</ele>
        <time>2019-04-29T12:50:03Z</time>
      </trkpt>
      <trkpt lat="43.92652" lon="5.23641">
        <ele>346.69</ele>
        <time>2019-04-29T12:50:20Z</time>
      </trkpt>
      <trkpt lat="43.92633" lon="5.23637">
        <ele>345.25</ele>
        <time>2019-04-29T12:50:37Z</time>
      </trkpt>
      <trkpt lat="43.92615" lon="5.23632">
        <ele>345.25</ele>
        <time>2019-04-29T12:50:54Z</time>
      </trkpt>
      <trkpt lat="43.92597" lon="5.23625">
        <ele>344.29</ele>
        <time>2019-04-29T12:51:10Z</time>
      </trkpt>
      <trkpt lat="43.92582" lon="5.23639">
        <ele>343.33</ele>
        <time>2019-04-29T12:51:27Z</time>
      </trkpt>
      <trkpt lat="43.92567" lon="5.23663">
        <ele>340.92</ele>
        <time>2019-04-29T12:51:48Z</time>
      </trkpt>
      <trkpt lat="43.92548" lon="5.23672">
        <ele>339</ele>
        <time>2019-04-29T12:52:07Z</time>
      </trkpt>
      <trkpt lat="43.92531" lon="5.23686">
        <ele>337.56</ele>
        <time>2019-04-29T12:52:25Z</time>
      </trkpt>
      <trkpt lat="43.92518" lon="5.23697">
        <ele>336.12</ele>
        <time>2019-04-29T12:52:38Z</time>
      </trkpt>
      <trkpt lat="43.92516" lon="5.237">
        <ele>335.64</ele>
        <time>2019-04-29T12:52:40Z</time>
      </trkpt>
      <trkpt lat="43.92511" lon="5.23709">
        <ele>335.16</ele>
        <time>2019-04-29T12:52:48Z</time>
      </trkpt>
      <trkpt lat="43.92496" lon="5.23725">
        <ele>333.23</ele>
        <time>2019-04-29T12:53:08Z</time>
      </trkpt>
      <trkpt lat="43.92496" lon="5.23725">
        <ele>333.23</ele>
        <time>2019-04-29T12:53:34Z</time>
      </trkpt>
      <trkpt lat="43.92498" lon="5.23725">
        <ele>333.71</ele>
        <time>2019-04-29T12:54:03Z</time>
      </trkpt>
      <trkpt lat="43.92498" lon="5.23725">
        <ele>333.23</ele>
        <time>2019-04-29T12:54:31Z</time>
      </trkpt>
      <trkpt lat="43.92497" lon="5.23724">
        <ele>333.23</ele>
        <time>2019-04-29T12:55:01Z</time>
      </trkpt>
      <trkpt lat="43.92495" lon="5.23728">
        <ele>333.23</ele>
        <time>2019-04-29T12:55:32Z</time>
      </trkpt>
      <trkpt lat="43.92484" lon="5.23745">
        <ele>332.75</ele>
        <time>2019-04-29T12:55:48Z</time>
      </trkpt>
      <trkpt lat="43.92482" lon="5.2375">
        <ele>332.27</ele>
        <time>2019-04-29T12:55:52Z</time>
      </trkpt>
      <trkpt lat="43.9248" lon="5.23772">
        <ele>329.87</ele>
        <time>2019-04-29T12:56:11Z</time>
      </trkpt>
      <trkpt lat="43.92484" lon="5.23778">
        <ele>329.87</ele>
        <time>2019-04-29T12:56:17Z</time>
      </trkpt>
      <trkpt lat="43.92489" lon="5.23799">
        <ele>330.35</ele>
        <time>2019-04-29T12:56:33Z</time>
      </trkpt>
      <trkpt lat="43.92491" lon="5.23822">
        <ele>328.43</ele>
        <time>2019-04-29T12:56:52Z</time>
      </trkpt>
      <trkpt lat="43.92489" lon="5.23833">
        <ele>326.99</ele>
        <time>2019-04-29T12:57:11Z</time>
      </trkpt>
      <trkpt lat="43.92489" lon="5.2385">
        <ele>324.58</ele>
        <time>2019-04-29T12:57:33Z</time>
      </trkpt>
      <trkpt lat="43.92482" lon="5.23871">
        <ele>324.1</ele>
        <time>2019-04-29T12:57:53Z</time>
      </trkpt>
      <trkpt lat="43.92477" lon="5.23897">
        <ele>324.1</ele>
        <time>2019-04-29T12:58:14Z</time>
      </trkpt>
      <trkpt lat="43.92474" lon="5.23915">
        <ele>323.62</ele>
        <time>2019-04-29T12:58:31Z</time>
      </trkpt>
      <trkpt lat="43.92475" lon="5.23932">
        <ele>323.62</ele>
        <time>2019-04-29T12:58:47Z</time>
      </trkpt>
      <trkpt lat="43.92478" lon="5.23949">
        <ele>323.14</ele>
        <time>2019-04-29T12:59:03Z</time>
      </trkpt>
      <trkpt lat="43.92482" lon="5.23969">
        <ele>322.18</ele>
        <time>2019-04-29T12:59:19Z</time>
      </trkpt>
      <trkpt lat="43.9248" lon="5.23991">
        <ele>321.7</ele>
        <time>2019-04-29T12:59:40Z</time>
      </trkpt>
      <trkpt lat="43.92477" lon="5.2401">
        <ele>320.74</ele>
        <time>2019-04-29T13:00:01Z</time>
      </trkpt>
      <trkpt lat="43.92479" lon="5.24031">
        <ele>319.78</ele>
        <time>2019-04-29T13:00:19Z</time>
      </trkpt>
      <trkpt lat="43.92484" lon="5.24051">
        <ele>319.78</ele>
        <time>2019-04-29T13:00:36Z</time>
      </trkpt>
      <trkpt lat="43.92483" lon="5.24069">
        <ele>318.81</ele>
        <time>2019-04-29T13:00:53Z</time>
      </trkpt>
      <trkpt lat="43.92489" lon="5.24088">
        <ele>317.85</ele>
        <time>2019-04-29T13:01:13Z</time>
      </trkpt>
      <trkpt lat="43.92492" lon="5.24103">
        <ele>317.37</ele>
        <time>2019-04-29T13:01:27Z</time>
      </trkpt>
      <trkpt lat="43.92494" lon="5.24128">
        <ele>316.41</ele>
        <time>2019-04-29T13:01:49Z</time>
      </trkpt>
      <trkpt lat="43.92502" lon="5.24146">
        <ele>316.41</ele>
        <time>2019-04-29T13:02:09Z</time>
      </trkpt>
      <trkpt lat="43.92508" lon="5.24164">
        <ele>315.45</ele>
        <time>2019-04-29T13:02:30Z</time>
      </trkpt>
      <trkpt lat="43.92518" lon="5.24181">
        <ele>314.97</ele>
        <time>2019-04-29T13:02:49Z</time>
      </trkpt>
      <trkpt lat="43.9252" lon="5.24194">
        <ele>313.53</ele>
        <time>2019-04-29T13:02:59Z</time>
      </trkpt>
      <trkpt lat="43.92521" lon="5.24203">
        <ele>313.05</ele>
        <time>2019-04-29T13:03:16Z</time>
      </trkpt>
      <trkpt lat="43.92519" lon="5.24203">
        <ele>311.6</ele>
        <time>2019-04-29T13:03:48Z</time>
      </trkpt>
      <trkpt lat="43.92518" lon="5.24201">
        <ele>312.09</ele>
        <time>2019-04-29T13:04:26Z</time>
      </trkpt>
      <trkpt lat="43.92518" lon="5.24201">
        <ele>312.57</ele>
        <time>2019-04-29T13:04:43Z</time>
      </trkpt>
      <trkpt lat="43.92518" lon="5.24202">
        <ele>312.57</ele>
        <time>2019-04-29T13:05:19Z</time>
      </trkpt>
      <trkpt lat="43.92518" lon="5.24203">
        <ele>312.57</ele>
        <time>2019-04-29T13:05:38Z</time>
      </trkpt>
      <trkpt lat="43.92517" lon="5.24203">
        <ele>312.57</ele>
        <time>2019-04-29T13:06:06Z</time>
      </trkpt>
      <trkpt lat="43.92517" lon="5.24202">
        <ele>312.57</ele>
        <time>2019-04-29T13:07:15Z</time>
      </trkpt>
      <trkpt lat="43.92518" lon="5.24203">
        <ele>312.57</ele>
        <time>2019-04-29T13:07:33Z</time>
      </trkpt>
      <trkpt lat="43.92518" lon="5.24202">
        <ele>312.57</ele>
        <time>2019-04-29T13:07:53Z</time>
      </trkpt>
      <trkpt lat="43.92518" lon="5.24203">
        <ele>312.57</ele>
        <time>2019-04-29T13:08:20Z</time>
      </trkpt>
      <trkpt lat="43.92518" lon="5.24204">
        <ele>312.57</ele>
        <time>2019-04-29T13:08:41Z</time>
      </trkpt>
      <trkpt lat="43.92516" lon="5.24204">
        <ele>312.57</ele>
        <time>2019-04-29T13:09:12Z</time>
      </trkpt>
      <trkpt lat="43.92517" lon="5.24202">
        <ele>312.57</ele>
        <time>2019-04-29T13:09:38Z</time>
      </trkpt>
      <trkpt lat="43.92517" lon="5.24204">
        <ele>312.57</ele>
        <time>2019-04-29T13:10:08Z</time>
      </trkpt>
      <trkpt lat="43.92516" lon="5.24218">
        <ele>312.57</ele>
        <time>2019-04-29T13:10:32Z</time>
      </trkpt>
      <trkpt lat="43.92515" lon="5.24245">
        <ele>313.53</ele>
        <time>2019-04-29T13:10:48Z</time>
      </trkpt>
      <trkpt lat="43.92515" lon="5.24274">
        <ele>312.09</ele>
        <time>2019-04-29T13:11:07Z</time>
      </trkpt>
      <trkpt lat="43.92524" lon="5.24297">
        <ele>311.12</ele>
        <time>2019-04-29T13:11:25Z</time>
      </trkpt>
      <trkpt lat="43.92525" lon="5.24301">
        <ele>311.12</ele>
        <time>2019-04-29T13:11:27Z</time>
      </trkpt>
      <trkpt lat="43.92526" lon="5.24314">
        <ele>311.12</ele>
        <time>2019-04-29T13:11:34Z</time>
      </trkpt>
      <trkpt lat="43.92537" lon="5.24334">
        <ele>311.6</ele>
        <time>2019-04-29T13:11:51Z</time>
      </trkpt>
      <trkpt lat="43.92539" lon="5.24343">
        <ele>311.12</ele>
        <time>2019-04-29T13:11:57Z</time>
      </trkpt>
      <trkpt lat="43.92539" lon="5.24349">
        <ele>311.12</ele>
        <time>2019-04-29T13:12:01Z</time>
      </trkpt>
      <trkpt lat="43.92544" lon="5.24365">
        <ele>310.64</ele>
        <time>2019-04-29T13:12:12Z</time>
      </trkpt>
      <trkpt lat="43.92552" lon="5.24393">
        <ele>310.64</ele>
        <time>2019-04-29T13:12:31Z</time>
      </trkpt>
      <trkpt lat="43.92558" lon="5.2442">
        <ele>310.64</ele>
        <time>2019-04-29T13:12:50Z</time>
      </trkpt>
      <trkpt lat="43.92566" lon="5.24441">
        <ele>310.64</ele>
        <time>2019-04-29T13:13:07Z</time>
      </trkpt>
      <trkpt lat="43.92577" lon="5.24461">
        <ele>309.68</ele>
        <time>2019-04-29T13:13:25Z</time>
      </trkpt>
      <trkpt lat="43.92582" lon="5.24488">
        <ele>310.16</ele>
        <time>2019-04-29T13:13:43Z</time>
      </trkpt>
      <trkpt lat="43.9259" lon="5.24511">
        <ele>309.2</ele>
        <time>2019-04-29T13:14:01Z</time>
      </trkpt>
      <trkpt lat="43.92598" lon="5.2453">
        <ele>308.24</ele>
        <time>2019-04-29T13:14:17Z</time>
      </trkpt>
      <trkpt lat="43.92607" lon="5.24544">
        <ele>309.2</ele>
        <time>2019-04-29T13:14:30Z</time>
      </trkpt>
      <trkpt lat="43.92619" lon="5.24568">
        <ele>309.2</ele>
        <time>2019-04-29T13:14:49Z</time>
      </trkpt>
      <trkpt lat="43.9262" lon="5.24568">
        <ele>309.2</ele>
        <time>2019-04-29T13:14:50Z</time>
      </trkpt>
      <trkpt lat="43.92628" lon="5.24578">
        <ele>308.72</ele>
        <time>2019-04-29T13:15:12Z</time>
      </trkpt>
      <trkpt lat="43.92626" lon="5.24577">
        <ele>309.2</ele>
        <time>2019-04-29T13:15:41Z</time>
      </trkpt>
      <trkpt lat="43.92626" lon="5.24577">
        <ele>307.76</ele>
        <time>2019-04-29T13:16:10Z</time>
      </trkpt>
      <trkpt lat="43.92628" lon="5.2458">
        <ele>308.24</ele>
        <time>2019-04-29T13:16:38Z</time>
      </trkpt>
      <trkpt lat="43.92633" lon="5.24603">
        <ele>308.24</ele>
        <time>2019-04-29T13:16:58Z</time>
      </trkpt>
      <trkpt lat="43.92633" lon="5.24621">
        <ele>306.8</ele>
        <time>2019-04-29T13:17:12Z</time>
      </trkpt>
      <trkpt lat="43.92634" lon="5.24627">
        <ele>305.84</ele>
        <time>2019-04-29T13:17:16Z</time>
      </trkpt>
      <trkpt lat="43.92634" lon="5.24655">
        <ele>304.88</ele>
        <time>2019-04-29T13:17:35Z</time>
      </trkpt>
      <trkpt lat="43.92629" lon="5.24683">
        <ele>304.39</ele>
        <time>2019-04-29T13:17:54Z</time>
      </trkpt>
      <trkpt lat="43.92628" lon="5.24689">
        <ele>303.43</ele>
        <time>2019-04-29T13:17:59Z</time>
      </trkpt>
      <trkpt lat="43.92626" lon="5.24715">
        <ele>302.95</ele>
        <time>2019-04-29T13:18:15Z</time>
      </trkpt>
      <trkpt lat="43.92626" lon="5.24743">
        <ele>302.47</ele>
        <time>2019-04-29T13:18:33Z</time>
      </trkpt>
      <trkpt lat="43.92624" lon="5.24771">
        <ele>301.03</ele>
        <time>2019-04-29T13:18:51Z</time>
      </trkpt>
      <trkpt lat="43.92625" lon="5.24784">
        <ele>301.03</ele>
        <time>2019-04-29T13:18:59Z</time>
      </trkpt>
      <trkpt lat="43.92626" lon="5.248">
        <ele>301.03</ele>
        <time>2019-04-29T13:19:10Z</time>
      </trkpt>
      <trkpt lat="43.92634" lon="5.24825">
        <ele>300.07</ele>
        <time>2019-04-29T13:19:28Z</time>
      </trkpt>
      <trkpt lat="43.92638" lon="5.24841">
        <ele>301.03</ele>
        <time>2019-04-29T13:19:38Z</time>
      </trkpt>
      <trkpt lat="43.92646" lon="5.24866">
        <ele>300.07</ele>
        <time>2019-04-29T13:19:55Z</time>
      </trkpt>
      <trkpt lat="43.92653" lon="5.24893">
        <ele>299.59</ele>
        <time>2019-04-29T13:20:12Z</time>
      </trkpt>
      <trkpt lat="43.92661" lon="5.2491">
        <ele>299.59</ele>
        <time>2019-04-29T13:20:25Z</time>
      </trkpt>
      <trkpt lat="43.9267" lon="5.2494">
        <ele>298.63</ele>
        <time>2019-04-29T13:20:43Z</time>
      </trkpt>
      <trkpt lat="43.9267" lon="5.24972">
        <ele>298.15</ele>
        <time>2019-04-29T13:21:03Z</time>
      </trkpt>
      <trkpt lat="43.92667" lon="5.25007">
        <ele>296.7</ele>
        <time>2019-04-29T13:21:24Z</time>
      </trkpt>
      <trkpt lat="43.92663" lon="5.25031">
        <ele>294.78</ele>
        <time>2019-04-29T13:21:39Z</time>
      </trkpt>
      <trkpt lat="43.92668" lon="5.25051">
        <ele>293.34</ele>
        <time>2019-04-29T13:21:57Z</time>
      </trkpt>
      <trkpt lat="43.92668" lon="5.25053">
        <ele>293.82</ele>
        <time>2019-04-29T13:22:19Z</time>
      </trkpt>
      <trkpt lat="43.92667" lon="5.25055">
        <ele>293.34</ele>
        <time>2019-04-29T13:22:49Z</time>
      </trkpt>
      <trkpt lat="43.92669" lon="5.25055">
        <ele>293.34</ele>
        <time>2019-04-29T13:23:17Z</time>
      </trkpt>
      <trkpt lat="43.9267" lon="5.25058">
        <ele>292.86</ele>
        <time>2019-04-29T13:23:48Z</time>
      </trkpt>
      <trkpt lat="43.92669" lon="5.25057">
        <ele>292.86</ele>
        <time>2019-04-29T13:24:30Z</time>
      </trkpt>
      <trkpt lat="43.92667" lon="5.25057">
        <ele>293.34</ele>
        <time>2019-04-29T13:24:58Z</time>
      </trkpt>
      <trkpt lat="43.92664" lon="5.25057">
        <ele>293.82</ele>
        <time>2019-04-29T13:25:20Z</time>
      </trkpt>
      <trkpt lat="43.92664" lon="5.25058">
        <ele>293.34</ele>
        <time>2019-04-29T13:25:43Z</time>
      </trkpt>
      <trkpt lat="43.92656" lon="5.25062">
        <ele>292.86</ele>
        <time>2019-04-29T13:25:54Z</time>
      </trkpt>
      <trkpt lat="43.92644" lon="5.25076">
        <ele>291.9</ele>
        <time>2019-04-29T13:26:11Z</time>
      </trkpt>
      <trkpt lat="43.92643" lon="5.25078">
        <ele>291.9</ele>
        <time>2019-04-29T13:26:12Z</time>
      </trkpt>
      <trkpt lat="43.92623" lon="5.25081">
        <ele>289.49</ele>
        <time>2019-04-29T13:26:30Z</time>
      </trkpt>
      <trkpt lat="43.92603" lon="5.25077">
        <ele>286.61</ele>
        <time>2019-04-29T13:26:48Z</time>
      </trkpt>
      <trkpt lat="43.92594" lon="5.25089">
        <ele>285.17</ele>
        <time>2019-04-29T13:27:05Z</time>
      </trkpt>
      <trkpt lat="43.9259" lon="5.25099">
        <ele>284.21</ele>
        <time>2019-04-29T13:27:26Z</time>
      </trkpt>
      <trkpt lat="43.92584" lon="5.2511">
        <ele>281.8</ele>
        <time>2019-04-29T13:27:38Z</time>
      </trkpt>
      <trkpt lat="43.92578" lon="5.25127">
        <ele>279.88</ele>
        <time>2019-04-29T13:27:54Z</time>
      </trkpt>
      <trkpt lat="43.92577" lon="5.25141">
        <ele>279.88</ele>
        <time>2019-04-29T13:28:09Z</time>
      </trkpt>
      <trkpt lat="43.92581" lon="5.25156">
        <ele>277</ele>
        <time>2019-04-29T13:28:24Z</time>
      </trkpt>
      <trkpt lat="43.9258" lon="5.2517">
        <ele>273.63</ele>
        <time>2019-04-29T13:28:41Z</time>
      </trkpt>
      <trkpt lat="43.92578" lon="5.25185">
        <ele>270.75</ele>
        <time>2019-04-29T13:28:57Z</time>
      </trkpt>
      <trkpt lat="43.92567" lon="5.25192">
        <ele>269.31</ele>
        <time>2019-04-29T13:29:08Z</time>
      </trkpt>
      <trkpt lat="43.92562" lon="5.25196">
        <ele>267.38</ele>
        <time>2019-04-29T13:29:24Z</time>
      </trkpt>
      <trkpt lat="43.92565" lon="5.25197">
        <ele>267.38</ele>
        <time>2019-04-29T13:29:37Z</time>
      </trkpt>
      <trkpt lat="43.9257" lon="5.25196">
        <ele>267.38</ele>
        <time>2019-04-29T13:30:09Z</time>
      </trkpt>
      <trkpt lat="43.92573" lon="5.25197">
        <ele>267.38</ele>
        <time>2019-04-29T13:30:43Z</time>
      </trkpt>
      <trkpt lat="43.92572" lon="5.25198">
        <ele>267.38</ele>
        <time>2019-04-29T13:31:15Z</time>
      </trkpt>
      <trkpt lat="43.92572" lon="5.25198">
        <ele>267.38</ele>
        <time>2019-04-29T13:31:47Z</time>
      </trkpt>
      <trkpt lat="43.92567" lon="5.25196">
        <ele>267.38</ele>
        <time>2019-04-29T13:32:12Z</time>
      </trkpt>
      <trkpt lat="43.92563" lon="5.25198">
        <ele>267.38</ele>
        <time>2019-04-29T13:32:46Z</time>
      </trkpt>
      <trkpt lat="43.92567" lon="5.25198">
        <ele>267.38</ele>
        <time>2019-04-29T13:33:18Z</time>
      </trkpt>
      <trkpt lat="43.92568" lon="5.25198">
        <ele>267.38</ele>
        <time>2019-04-29T13:33:20Z</time>
      </trkpt>
      <trkpt lat="43.92568" lon="5.252">
        <ele>267.38</ele>
        <time>2019-04-29T13:33:51Z</time>
      </trkpt>
      <trkpt lat="43.92568" lon="5.25195">
        <ele>267.38</ele>
        <time>2019-04-29T13:34:20Z</time>
      </trkpt>
      <trkpt lat="43.92572" lon="5.25193">
        <ele>267.38</ele>
        <time>2019-04-29T13:34:54Z</time>
      </trkpt>
      <trkpt lat="43.92557" lon="5.25185">
        <ele>267.38</ele>
        <time>2019-04-29T13:35:14Z</time>
      </trkpt>
      <trkpt lat="43.92549" lon="5.25188">
        <ele>264.02</ele>
        <time>2019-04-29T13:35:23Z</time>
      </trkpt>
      <trkpt lat="43.92546" lon="5.25188">
        <ele>262.1</ele>
        <time>2019-04-29T13:35:45Z</time>
      </trkpt>
      <trkpt lat="43.92533" lon="5.25176">
        <ele>261.14</ele>
        <time>2019-04-29T13:36:06Z</time>
      </trkpt>
      <trkpt lat="43.92531" lon="5.25171">
        <ele>260.17</ele>
        <time>2019-04-29T13:36:13Z</time>
      </trkpt>
      <trkpt lat="43.92531" lon="5.2517">
        <ele>260.17</ele>
        <time>2019-04-29T13:36:15Z</time>
      </trkpt>
      <trkpt lat="43.92532" lon="5.25166">
        <ele>259.69</ele>
        <time>2019-04-29T13:36:19Z</time>
      </trkpt>
    </trkseg>
  </trk>
</gpx>